Wetterdaten: Freitag, 31.05.2013
Datum Zeit Temp. Aussen +5cm Feuchte Auss Luftdruck Regen Sonnenschein Regendauer UV Solar Windben
31.05.2013 00:00 11,2 C 9,0 C 85 % 1009,4 hPa 0,0 l/m 0 min 0 min 0,0 UV-I 0 W/m 0,0 km/h (0 Bft)
31.05.2013 00:02 11,2 C 9,0 C 85 % 1009,4 hPa 0,0 l/m 0 min 0 min 0,0 UV-I 0 W/m 0,0 km/h (0 Bft)
31.05.2013 00:06 11,2 C 9,6 C 85 % 1009,4 hPa 0,0 l/m 0 min 0 min 0,0 UV-I 0 W/m 0,0 km/h (0 Bft)
31.05.2013 00:08 11,1 C 9,6 C 85 % 1009,4 hPa 0,0 l/m 0 min 0 min 0,0 UV-I 0 W/m 0,0 km/h (0 Bft)
31.05.2013 00:10 11,1 C 9,6 C 85 % 1009,4 hPa 0,0 l/m 0 min 0 min 0,0 UV-I 0 W/m 0,0 km/h (0 Bft)
31.05.2013 00:12 11,1 C 9,6 C 86 % 1009,4 hPa 0,0 l/m 0 min 0 min 0,0 UV-I 0 W/m 0,0 km/h (0 Bft)
31.05.2013 00:14 11,1 C 9,6 C 85 % 1009,4 hPa 0,0 l/m 0 min 0 min 0,0 UV-I 0 W/m 0,0 km/h (0 Bft)
31.05.2013 00:16 11,1 C 9,6 C 86 % 1009,4 hPa 0,0 l/m 0 min 0 min 0,0 UV-I 0 W/m 0,0 km/h (0 Bft)
31.05.2013 00:18 11,1 C 9,6 C 86 % 1009,5 hPa 0,0 l/m 0 min 0 min 0,0 UV-I 0 W/m 0,0 km/h (0 Bft)
31.05.2013 00:20 11,1 C 9,6 C 86 % 1009,4 hPa 0,0 l/m 0 min 0 min 0,0 UV-I 0 W/m 0,0 km/h (0 Bft)
31.05.2013 00:22 11,1 C 9,6 C 86 % 1009,5 hPa 0,0 l/m 0 min 0 min 0,0 UV-I 0 W/m 0,0 km/h (0 Bft)
31.05.2013 00:24 11,0 C 9,6 C 86 % 1009,4 hPa 0,0 l/m 0 min 0 min 0,0 UV-I 0 W/m 0,0 km/h (0 Bft)
31.05.2013 00:26 11,0 C 9,6 C 86 % 1009,5 hPa 0,0 l/m 0 min 0 min 0,0 UV-I 0 W/m 0,0 km/h (0 Bft)
31.05.2013 00:28 11,0 C 10,1 C 87 % 1009,4 hPa 0,0 l/m 0 min 0 min 0,0 UV-I 0 W/m 7,7 km/h (2 Bft)
31.05.2013 00:30 11,0 C 10,1 C 87 % 1009,4 hPa 0,0 l/m 0 min 0 min 0,0 UV-I 0 W/m 0,0 km/h (0 Bft)
31.05.2013 00:32 11,0 C 10,1 C 87 % 1009,4 hPa 0,0 l/m 0 min 0 min 0,0 UV-I 0 W/m 0,0 km/h (0 Bft)
31.05.2013 00:34 11,0 C 10,1 C 87 % 1009,5 hPa 0,0 l/m 0 min 0 min 0,0 UV-I 0 W/m 0,0 km/h (0 Bft)
31.05.2013 00:36 11,0 C 10,1 C 87 % 1009,5 hPa 0,0 l/m 0 min 0 min 0,0 UV-I 0 W/m 0,0 km/h (0 Bft)
31.05.2013 00:38 11,0 C 10,1 C 87 % 1009,4 hPa 0,0 l/m 0 min 0 min 0,0 UV-I 0 W/m 0,0 km/h (0 Bft)
31.05.2013 00:40 11,0 C 10,1 C 87 % 1009,4 hPa 0,0 l/m 0 min 0 min 0,0 UV-I 0 W/m 0,0 km/h (0 Bft)
31.05.2013 00:42 11,0 C 10,1 C 87 % 1009,3 hPa 0,0 l/m 0 min 0 min 0,0 UV-I 0 W/m 0,0 km/h (0 Bft)
31.05.2013 00:44 11,1 C 10,1 C 87 % 1009,3 hPa 0,0 l/m 0 min 0 min 0,0 UV-I 0 W/m 0,0 km/h (0 Bft)
31.05.2013 00:46 11,1 C 10,1 C 87 % 1009,3 hPa 0,0 l/m 0 min 0 min 0,0 UV-I 0 W/m 0,0 km/h (0 Bft)
31.05.2013 00:48 11,1 C 10,1 C 87 % 1009,3 hPa 0,0 l/m 0 min 0 min 0,0 UV-I 0 W/m 0,0 km/h (0 Bft)
31.05.2013 00:50 11,1 C 10,1 C 87 % 1009,3 hPa 0,0 l/m 0 min 0 min 0,0 UV-I 0 W/m 0,0 km/h (0 Bft)
31.05.2013 00:52 11,1 C 10,1 C 87 % 1009,3 hPa 0,0 l/m 0 min 0 min 0,0 UV-I 0 W/m 0,0 km/h (0 Bft)
31.05.2013 00:54 11,1 C 10,1 C 87 % 1009,3 hPa 0,0 l/m 0 min 0 min 0,0 UV-I 0 W/m 0,0 km/h (0 Bft)
31.05.2013 00:56 11,1 C 10,1 C 87 % 1009,3 hPa 0,0 l/m 0 min 0 min 0,0 UV-I 0 W/m 0,0 km/h (0 Bft)
31.05.2013 00:58 11,1 C 10,1 C 87 % 1009,3 hPa 0,0 l/m 0 min 0 min 0,0 UV-I 0 W/m 0,0 km/h (0 Bft)
31.05.2013 01:00 11,1 C 10,1 C 87 % 1009,3 hPa 0,0 l/m 0 min 0 min 0,0 UV-I 0 W/m 2,6 km/h (1 Bft)
31.05.2013 01:02 11,2 C 10,1 C 87 % 1009,2 hPa 0,0 l/m 0 min 0 min 0,0 UV-I 0 W/m 0,0 km/h (0 Bft)
31.05.2013 01:04 11,2 C 10,1 C 87 % 1009,2 hPa 0,0 l/m 0 min 0 min 0,0 UV-I 0 W/m 0,0 km/h (0 Bft)
31.05.2013 01:06 11,2 C 10,1 C 87 % 1009,2 hPa 0,0 l/m 0 min 0 min 0,0 UV-I 0 W/m 0,0 km/h (0 Bft)
31.05.2013 01:08 11,2 C 10,1 C 87 % 1009,2 hPa 0,0 l/m 0 min 0 min 0,0 UV-I 0 W/m 0,0 km/h (0 Bft)
31.05.2013 01:10 11,2 C 10,1 C 87 % 1009,2 hPa 0,0 l/m 0 min 0 min 0,0 UV-I 0 W/m 0,0 km/h (0 Bft)
31.05.2013 01:12 11,2 C 10,1 C 87 % 1009,1 hPa 0,0 l/m 0 min 0 min 0,0 UV-I 0 W/m 0,0 km/h (0 Bft)
31.05.2013 01:14 11,2 C 10,1 C 87 % 1009,1 hPa 0,0 l/m 0 min 0 min 0,0 UV-I 0 W/m 0,0 km/h (0 Bft)
31.05.2013 01:16 11,2 C 10,1 C 87 % 1009,1 hPa 0,0 l/m 0 min 0 min 0,0 UV-I 0 W/m 0,0 km/h (0 Bft)
31.05.2013 01:18 11,2 C 10,1 C 87 % 1009,1 hPa 0,0 l/m 0 min 0 min 0,0 UV-I 0 W/m 0,0 km/h (0 Bft)
31.05.2013 01:20 11,2 C 10,1 C 87 % 1009,1 hPa 0,0 l/m 0 min 0 min 0,0 UV-I 0 W/m 0,0 km/h (0 Bft)
31.05.2013 01:22 11,2 C 10,1 C 87 % 1009,1 hPa 0,0 l/m 0 min 0 min 0,0 UV-I 0 W/m 0,0 km/h (0 Bft)
31.05.2013 01:24 11,2 C 10,1 C 87 % 1009,1 hPa 0,0 l/m 0 min 0 min 0,0 UV-I 0 W/m 0,0 km/h (0 Bft)
31.05.2013 01:26 11,2 C 10,1 C 87 % 1009,1 hPa 0,0 l/m 0 min 0 min 0,0 UV-I 0 W/m 0,0 km/h (0 Bft)
31.05.2013 01:28 11,2 C 10,1 C 87 % 1009,1 hPa 0,0 l/m 0 min 0 min 0,0 UV-I 0 W/m 7,7 km/h (2 Bft)
31.05.2013 01:30 11,2 C 10,1 C 87 % 1009,1 hPa 0,0 l/m 0 min 0 min 0,0 UV-I 0 W/m 0,0 km/h (0 Bft)
31.05.2013 01:32 11,2 C 10,1 C 87 % 1009,1 hPa 0,0 l/m 0 min 0 min 0,0 UV-I 0 W/m 0,0 km/h (0 Bft)
31.05.2013 01:34 11,2 C 10,1 C 87 % 1009,1 hPa 0,0 l/m 0 min 0 min 0,0 UV-I 0 W/m 5,1 km/h (1 Bft)
31.05.2013 01:36 11,2 C 10,1 C 87 % 1009,1 hPa 0,0 l/m 0 min 0 min 0,0 UV-I 0 W/m 2,6 km/h (1 Bft)
31.05.2013 01:38 11,2 C 10,1 C 87 % 1009,1 hPa 0,0 l/m 0 min 0 min 0,0 UV-I 0 W/m 0,0 km/h (0 Bft)
31.05.2013 01:40 11,2 C 10,1 C 87 % 1009,1 hPa 0,0 l/m 0 min 0 min 0,0 UV-I 0 W/m 0,0 km/h (0 Bft)
31.05.2013 01:42 11,2 C 10,1 C 87 % 1009,1 hPa 0,0 l/m 0 min 0 min 0,0 UV-I 0 W/m 0,0 km/h (0 Bft)
31.05.2013 01:44 11,2 C 10,1 C 87 % 1009,2 hPa 0,0 l/m 0 min 0 min 0,0 UV-I 0 W/m 0,0 km/h (0 Bft)
31.05.2013 01:46 11,2 C 10,1 C 87 % 1009,2 hPa 0,0 l/m 0 min 0 min 0,0 UV-I 0 W/m 0,0 km/h (0 Bft)
31.05.2013 01:48 11,3 C 10,1 C 87 % 1009,1 hPa 0,0 l/m 0 min 0 min 0,0 UV-I 0 W/m 0,0 km/h (0 Bft)
31.05.2013 01:50 11,3 C 10,1 C 87 % 1009,0 hPa 0,0 l/m 0 min 0 min 0,0 UV-I 0 W/m 0,0 km/h (0 Bft)
31.05.2013 01:52 11,3 C 10,1 C 88 % 1009,0 hPa 0,0 l/m 0 min 0 min 0,0 UV-I 0 W/m 2,6 km/h (1 Bft)
31.05.2013 01:54 11,3 C 10,1 C 88 % 1008,9 hPa 0,0 l/m 0 min 0 min 0,0 UV-I 0 W/m 0,0 km/h (0 Bft)
31.05.2013 01:56 11,3 C 10,1 C 88 % 1008,8 hPa 0,0 l/m 0 min 0 min 0,0 UV-I 0 W/m 0,0 km/h (0 Bft)
31.05.2013 01:58 11,3 C 10,1 C 88 % 1008,8 hPa 0,0 l/m 0 min 0 min 0,0 UV-I 0 W/m 0,0 km/h (0 Bft)
31.05.2013 02:00 11,3 C 10,1 C 88 % 1008,9 hPa 0,0 l/m 0 min 0 min 0,0 UV-I 0 W/m 0,0 km/h (0 Bft)
31.05.2013 02:02 11,3 C 10,1 C 88 % 1008,8 hPa 0,0 l/m 0 min 0 min 0,0 UV-I 0 W/m 0,0 km/h (0 Bft)
31.05.2013 02:04 11,3 C 10,1 C 89 % 1008,7 hPa 0,0 l/m 0 min 0 min 0,0 UV-I 0 W/m 0,0 km/h (0 Bft)
31.05.2013 02:06 11,3 C 10,1 C 89 % 1008,7 hPa 0,0 l/m 0 min 0 min 0,0 UV-I 0 W/m 0,0 km/h (0 Bft)
31.05.2013 02:08 11,4 C 10,1 C 89 % 1008,8 hPa 0,0 l/m 0 min 0 min 0,0 UV-I 0 W/m 0,0 km/h (0 Bft)
31.05.2013 02:10 11,4 C 10,1 C 89 % 1008,9 hPa 0,0 l/m 0 min 0 min 0,0 UV-I 0 W/m 2,6 km/h (1 Bft)
31.05.2013 02:12 11,4 C 10,1 C 89 % 1008,9 hPa 0,0 l/m 0 min 0 min 0,0 UV-I 0 W/m 2,6 km/h (1 Bft)
31.05.2013 02:14 11,4 C 10,1 C 89 % 1008,8 hPa 0,0 l/m 0 min 0 min 0,0 UV-I 0 W/m 0,0 km/h (0 Bft)
31.05.2013 02:16 11,4 C 10,1 C 89 % 1008,8 hPa 0,0 l/m 0 min 0 min 0,0 UV-I 0 W/m 0,0 km/h (0 Bft)
31.05.2013 02:18 11,4 C 10,1 C 90 % 1008,8 hPa 0,0 l/m 0 min 0 min 0,0 UV-I 0 W/m 0,0 km/h (0 Bft)
31.05.2013 02:20 11,4 C 10,1 C 90 % 1008,9 hPa 0,0 l/m 0 min 0 min 0,0 UV-I 0 W/m 0,0 km/h (0 Bft)
31.05.2013 02:22 11,4 C 10,1 C 90 % 1008,8 hPa 0,0 l/m 0 min 0 min 0,0 UV-I 0 W/m 2,6 km/h (1 Bft)
31.05.2013 02:24 11,4 C 10,1 C 90 % 1008,9 hPa 0,0 l/m 0 min 0 min 0,0 UV-I 0 W/m 7,7 km/h (2 Bft)
31.05.2013 02:26 11,4 C 10,1 C 90 % 1008,9 hPa 0,0 l/m 0 min 0 min 0,0 UV-I 0 W/m 12,9 km/h (3 Bft)
31.05.2013 02:28 11,4 C 10,1 C 90 % 1008,8 hPa 0,0 l/m 0 min 0 min 0,0 UV-I 0 W/m 0,0 km/h (0 Bft)
31.05.2013 02:30 11,4 C 10,1 C 90 % 1008,8 hPa 0,0 l/m 0 min 0 min 0,0 UV-I 0 W/m 7,7 km/h (2 Bft)
31.05.2013 02:32 11,5 C 10,1 C 90 % 1008,8 hPa 0,0 l/m 0 min 0 min 0,0 UV-I 0 W/m 0,0 km/h (0 Bft)
31.05.2013 02:34 11,4 C 10,1 C 90 % 1008,8 hPa 0,0 l/m 0 min 0 min 0,0 UV-I 0 W/m 2,6 km/h (1 Bft)
31.05.2013 02:36 11,4 C 10,1 C 90 % 1008,8 hPa 0,0 l/m 0 min 0 min 0,0 UV-I 0 W/m 0,0 km/h (0 Bft)
31.05.2013 02:38 11,4 C 10,1 C 91 % 1008,7 hPa 0,0 l/m 0 min 0 min 0,0 UV-I 0 W/m 5,1 km/h (1 Bft)
31.05.2013 02:40 11,4 C 10,1 C 91 % 1008,7 hPa 0,0 l/m 0 min 0 min 0,0 UV-I 0 W/m 7,7 km/h (2 Bft)
31.05.2013 02:42 11,4 C 10,1 C 91 % 1008,9 hPa 0,0 l/m 0 min 0 min 0,0 UV-I 0 W/m 7,7 km/h (2 Bft)
31.05.2013 02:44 11,4 C 10,1 C 91 % 1008,8 hPa 0,0 l/m 0 min 0 min 0,0 UV-I 0 W/m 5,1 km/h (1 Bft)
31.05.2013 02:46 11,4 C 10,1 C 91 % 1008,8 hPa 0,0 l/m 0 min 0 min 0,0 UV-I 0 W/m 5,1 km/h (1 Bft)
31.05.2013 02:48 11,4 C 10,1 C 91 % 1008,8 hPa 0,0 l/m 0 min 0 min 0,0 UV-I 0 W/m 0,0 km/h (0 Bft)
31.05.2013 02:50 11,4 C 10,1 C 91 % 1008,8 hPa 0,0 l/m 0 min 0 min 0,0 UV-I 0 W/m 0,0 km/h (0 Bft)
31.05.2013 02:52 11,4 C 10,1 C 91 % 1008,8 hPa 0,0 l/m 0 min 0 min 0,0 UV-I 0 W/m 0,0 km/h (0 Bft)
31.05.2013 02:54 11,4 C 10,1 C 91 % 1008,7 hPa 0,0 l/m 0 min 0 min 0,0 UV-I 0 W/m 0,0 km/h (0 Bft)
31.05.2013 02:56 11,4 C 10,1 C 92 % 1008,6 hPa 0,0 l/m 0 min 0 min 0,0 UV-I 0 W/m 2,6 km/h (1 Bft)
31.05.2013 02:58 11,4 C 10,1 C 92 % 1008,5 hPa 0,0 l/m 0 min 0 min 0,0 UV-I 0 W/m 0,0 km/h (0 Bft)
31.05.2013 03:00 11,4 C 10,1 C 92 % 1008,6 hPa 0,0 l/m 0 min 0 min 0,0 UV-I 0 W/m 0,0 km/h (0 Bft)
31.05.2013 03:02 11,4 C 10,1 C 92 % 1008,6 hPa 0,0 l/m 0 min 0 min 0,0 UV-I 0 W/m 2,6 km/h (1 Bft)
31.05.2013 03:05 11,4 C 10,1 C 92 % 1008,6 hPa 0,0 l/m 0 min 0 min 0,0 UV-I 0 W/m 12,9 km/h (3 Bft)
31.05.2013 03:06 11,4 C 10,1 C 92 % 1008,6 hPa 0,0 l/m 0 min 0 min 0,0 UV-I 0 W/m 0,0 km/h (0 Bft)
31.05.2013 03:08 11,4 C 10,7 C 92 % 1008,7 hPa 0,0 l/m 0 min 0 min 0,0 UV-I 0 W/m 10,3 km/h (2 Bft)
31.05.2013 03:10 11,4 C 10,7 C 92 % 1008,7 hPa 0,0 l/m 0 min 0 min 0,0 UV-I 0 W/m 10,3 km/h (2 Bft)
31.05.2013 03:12 11,4 C 10,7 C 93 % 1008,5 hPa 0,0 l/m 0 min 0 min 0,0 UV-I 0 W/m 10,3 km/h (2 Bft)
31.05.2013 03:14 11,4 C 10,7 C 93 % 1008,5 hPa 0,0 l/m 0 min 0 min 0,0 UV-I 0 W/m 7,7 km/h (2 Bft)
31.05.2013 03:16 11,4 C 10,7 C 93 % 1008,5 hPa 0,0 l/m 0 min 0 min 0,0 UV-I 0 W/m 18,0 km/h (3 Bft)
31.05.2013 03:18 11,4 C 10,7 C 93 % 1008,4 hPa 0,0 l/m 0 min 0 min 0,0 UV-I 0 W/m 5,1 km/h (1 Bft)
31.05.2013 03:20 11,4 C 10,7 C 93 % 1008,5 hPa 0,0 l/m 0 min 0 min 0,0 UV-I 0 W/m 20,6 km/h (4 Bft)
31.05.2013 03:22 11,5 C 10,7 C 93 % 1008,5 hPa 0,0 l/m 0 min 0 min 0,0 UV-I 0 W/m 15,4 km/h (3 Bft)
31.05.2013 03:24 11,5 C 10,7 C 94 % 1008,3 hPa 0,0 l/m 0 min 0 min 0,0 UV-I 0 W/m 7,7 km/h (2 Bft)
31.05.2013 03:26 11,5 C 10,7 C 94 % 1008,3 hPa 0,0 l/m 0 min 0 min 0,0 UV-I 0 W/m 7,7 km/h (2 Bft)
31.05.2013 03:28 11,5 C 10,7 C 94 % 1008,3 hPa 0,0 l/m 0 min 0 min 0,0 UV-I 0 W/m 7,7 km/h (2 Bft)
31.05.2013 03:30 11,5 C 10,7 C 94 % 1008,3 hPa 0,0 l/m 0 min 0 min 0,0 UV-I 0 W/m 7,7 km/h (2 Bft)
31.05.2013 03:32 11,5 C 10,7 C 94 % 1008,3 hPa 0,0 l/m 0 min 0 min 0,0 UV-I 0 W/m 12,9 km/h (3 Bft)
31.05.2013 03:34 11,5 C 10,7 C 94 % 1008,3 hPa 0,0 l/m 0 min 0 min 0,0 UV-I 0 W/m 10,3 km/h (2 Bft)
31.05.2013 03:36 11,6 C 10,7 C 94 % 1008,3 hPa 0,0 l/m 0 min 0 min 0,0 UV-I 0 W/m 10,3 km/h (2 Bft)
31.05.2013 03:38 11,6 C 10,7 C 94 % 1008,2 hPa 0,0 l/m 0 min 0 min 0,0 UV-I 0 W/m 10,3 km/h (2 Bft)
31.05.2013 03:40 11,6 C 10,7 C 94 % 1008,2 hPa 0,0 l/m 0 min 0 min 0,0 UV-I 0 W/m 10,3 km/h (2 Bft)
31.05.2013 03:42 11,6 C 10,7 C 95 % 1008,2 hPa 0,0 l/m 0 min 0 min 0,0 UV-I 0 W/m 7,7 km/h (2 Bft)
31.05.2013 03:44 11,6 C 10,7 C 95 % 1008,3 hPa 0,0 l/m 0 min 0 min 0,0 UV-I 0 W/m 7,7 km/h (2 Bft)
31.05.2013 03:46 11,6 C 10,7 C 95 % 1008,3 hPa 0,0 l/m 0 min 2 min 0,0 UV-I 0 W/m 7,7 km/h (2 Bft)
31.05.2013 03:48 11,6 C 10,7 C 95 % 1008,3 hPa 0,0 l/m 0 min 2 min 0,0 UV-I 0 W/m 15,4 km/h (3 Bft)
31.05.2013 03:50 11,6 C 10,7 C 95 % 1008,3 hPa 0,0 l/m 0 min 2 min 0,0 UV-I 0 W/m 0,0 km/h (0 Bft)
31.05.2013 03:52 11,7 C 10,7 C 95 % 1008,2 hPa 0,0 l/m 0 min 2 min 0,0 UV-I 0 W/m 10,3 km/h (2 Bft)
31.05.2013 03:54 11,7 C 10,7 C 95 % 1008,2 hPa 0,0 l/m 0 min 2 min 0,0 UV-I 0 W/m 10,3 km/h (2 Bft)
31.05.2013 03:56 11,7 C 10,7 C 95 % 1008,2 hPa 0,2 l/m 0 min 2 min 0,0 UV-I 0 W/m 12,9 km/h (3 Bft)
31.05.2013 03:58 11,7 C 10,7 C 95 % 1008,1 hPa 0,2 l/m 0 min 2 min 0,0 UV-I 0 W/m 2,6 km/h (1 Bft)
31.05.2013 04:00 11,7 C 10,7 C 95 % 1008,1 hPa 0,0 l/m 0 min 2 min 0,0 UV-I 0 W/m 5,1 km/h (1 Bft)
31.05.2013 04:02 11,7 C 10,7 C 95 % 1008,2 hPa 0,0 l/m 0 min 2 min 0,0 UV-I 0 W/m 10,3 km/h (2 Bft)
31.05.2013 04:04 11,7 C 10,7 C 95 % 1008,1 hPa 0,0 l/m 0 min 0 min 0,0 UV-I 0 W/m 5,1 km/h (1 Bft)
31.05.2013 04:06 11,8 C 10,7 C 96 % 1008,0 hPa 0,0 l/m 0 min 0 min 0,0 UV-I 0 W/m 15,4 km/h (3 Bft)
31.05.2013 04:08 11,8 C 10,7 C 96 % 1007,9 hPa 0,0 l/m 0 min 0 min 0,0 UV-I 0 W/m 7,7 km/h (2 Bft)
31.05.2013 04:10 11,8 C 10,7 C 96 % 1008,0 hPa 0,0 l/m 0 min 0 min 0,0 UV-I 0 W/m 2,6 km/h (1 Bft)
31.05.2013 04:12 11,8 C 10,7 C 96 % 1007,9 hPa 0,0 l/m 0 min 0 min 0,0 UV-I 0 W/m 5,1 km/h (1 Bft)
31.05.2013 04:14 11,8 C 10,7 C 96 % 1008,0 hPa 0,0 l/m 0 min 0 min 0,0 UV-I 0 W/m 2,6 km/h (1 Bft)
31.05.2013 04:16 11,8 C 10,7 C 96 % 1008,0 hPa 0,0 l/m 0 min 0 min 0,0 UV-I 0 W/m 0,0 km/h (0 Bft)
31.05.2013 04:18 11,8 C 10,7 C 96 % 1007,9 hPa 0,0 l/m 0 min 0 min 0,0 UV-I 0 W/m 0,0 km/h (0 Bft)
31.05.2013 04:20 11,8 C 10,7 C 96 % 1008,0 hPa 0,0 l/m 0 min 0 min 0,0 UV-I 0 W/m 0,0 km/h (0 Bft)
31.05.2013 04:22 11,8 C 10,7 C 96 % 1008,0 hPa 0,0 l/m 0 min 0 min 0,0 UV-I 0 W/m 7,7 km/h (2 Bft)
31.05.2013 04:24 11,8 C 10,7 C 96 % 1007,9 hPa 0,0 l/m 0 min 0 min 0,0 UV-I 0 W/m 12,9 km/h (3 Bft)
31.05.2013 04:26 11,8 C 10,7 C 96 % 1007,9 hPa 0,0 l/m 0 min 0 min 0,0 UV-I 0 W/m 10,3 km/h (2 Bft)
31.05.2013 04:28 11,8 C 10,7 C 96 % 1007,9 hPa 0,0 l/m 0 min 0 min 0,0 UV-I 0 W/m 12,9 km/h (3 Bft)
31.05.2013 04:30 11,8 C 10,7 C 96 % 1007,8 hPa 0,0 l/m 0 min 0 min 0,0 UV-I 0 W/m 10,3 km/h (2 Bft)
31.05.2013 04:32 11,8 C 10,7 C 96 % 1007,9 hPa 0,0 l/m 0 min 0 min 0,0 UV-I 0 W/m 10,3 km/h (2 Bft)
31.05.2013 04:34 11,8 C 10,7 C 96 % 1007,8 hPa 0,0 l/m 0 min 0 min 0,0 UV-I 0 W/m 5,1 km/h (1 Bft)
31.05.2013 04:36 11,8 C 10,7 C 96 % 1007,8 hPa 0,0 l/m 0 min 0 min 0,0 UV-I 0 W/m 12,9 km/h (3 Bft)
31.05.2013 04:38 11,9 C 10,7 C 96 % 1007,8 hPa 0,0 l/m 0 min 0 min 0,0 UV-I 0 W/m 10,3 km/h (2 Bft)
31.05.2013 04:40 11,9 C 10,7 C 96 % 1007,8 hPa 0,0 l/m 0 min 0 min 0,0 UV-I 0 W/m 12,9 km/h (3 Bft)
31.05.2013 04:42 11,9 C 10,7 C 96 % 1007,7 hPa 0,0 l/m 0 min 0 min 0,0 UV-I 0 W/m 0,0 km/h (0 Bft)
31.05.2013 04:44 11,9 C 10,7 C 97 % 1007,8 hPa 0,0 l/m 0 min 0 min 0,0 UV-I 0 W/m 2,6 km/h (1 Bft)
31.05.2013 04:46 11,9 C 10,7 C 97 % 1007,6 hPa 0,0 l/m 0 min 0 min 0,0 UV-I 0 W/m 10,3 km/h (2 Bft)
31.05.2013 04:48 11,9 C 10,7 C 97 % 1007,6 hPa 0,0 l/m 0 min 0 min 0,0 UV-I 0 W/m 7,7 km/h (2 Bft)
31.05.2013 04:50 11,9 C 10,7 C 97 % 1007,6 hPa 0,0 l/m 0 min 0 min 0,0 UV-I 0 W/m 2,6 km/h (1 Bft)
31.05.2013 04:52 11,9 C 10,7 C 97 % 1007,6 hPa 0,0 l/m 0 min 0 min 0,0 UV-I 0 W/m 5,1 km/h (1 Bft)
31.05.2013 04:54 11,9 C 10,7 C 97 % 1007,5 hPa 0,0 l/m 0 min 0 min 0,0 UV-I 0 W/m 7,7 km/h (2 Bft)
31.05.2013 04:56 11,9 C 10,7 C 97 % 1007,6 hPa 0,0 l/m 0 min 0 min 0,0 UV-I 0 W/m 7,7 km/h (2 Bft)
31.05.2013 04:58 11,9 C 10,7 C 97 % 1007,7 hPa 0,0 l/m 0 min 0 min 0,0 UV-I 0 W/m 18,0 km/h (3 Bft)
31.05.2013 05:00 11,9 C 10,7 C 97 % 1007,6 hPa 0,0 l/m 0 min 2 min 0,0 UV-I 0 W/m 15,4 km/h (3 Bft)
31.05.2013 05:02 11,9 C 10,7 C 97 % 1007,6 hPa 0,0 l/m 0 min 2 min 0,0 UV-I 0 W/m 12,9 km/h (3 Bft)
31.05.2013 05:04 11,9 C 10,7 C 97 % 1007,6 hPa 0,0 l/m 0 min 0 min 0,0 UV-I 0 W/m 15,4 km/h (3 Bft)
31.05.2013 05:06 11,9 C 10,7 C 97 % 1007,7 hPa 0,0 l/m 0 min 0 min 0,0 UV-I 0 W/m 18,0 km/h (3 Bft)
31.05.2013 05:08 12,0 C 10,7 C 97 % 1007,7 hPa 0,0 l/m 0 min 0 min 0,0 UV-I 0 W/m 12,9 km/h (3 Bft)
31.05.2013 05:10 12,0 C 10,7 C 97 % 1007,7 hPa 0,0 l/m 0 min 0 min 0,0 UV-I 0 W/m 10,3 km/h (2 Bft)
31.05.2013 05:12 12,0 C 10,7 C 97 % 1007,5 hPa 0,0 l/m 0 min 0 min 0,0 UV-I 0 W/m 12,9 km/h (3 Bft)
31.05.2013 05:14 12,0 C 10,7 C 97 % 1007,6 hPa 0,0 l/m 0 min 0 min 0,0 UV-I 0 W/m 12,9 km/h (3 Bft)
31.05.2013 05:16 12,0 C 10,7 C 97 % 1007,5 hPa 0,0 l/m 0 min 0 min 0,0 UV-I 0 W/m 7,7 km/h (2 Bft)
31.05.2013 05:18 12,0 C 10,7 C 97 % 1007,6 hPa 0,0 l/m 0 min 0 min 0,0 UV-I 0 W/m 12,9 km/h (3 Bft)
31.05.2013 05:20 12,0 C 10,7 C 97 % 1007,6 hPa 0,0 l/m 0 min 0 min 0,0 UV-I 0 W/m 23,2 km/h (4 Bft)
31.05.2013 05:22 12,1 C 10,7 C 97 % 1007,7 hPa 0,0 l/m 0 min 0 min 0,0 UV-I 0 W/m 12,9 km/h (3 Bft)
31.05.2013 05:24 12,1 C 10,7 C 97 % 1007,8 hPa 0,0 l/m 0 min 0 min 0,0 UV-I 0 W/m 10,3 km/h (2 Bft)
31.05.2013 05:26 12,1 C 10,7 C 97 % 1007,8 hPa 0,0 l/m 0 min 0 min 0,0 UV-I 0 W/m 18,0 km/h (3 Bft)
31.05.2013 05:28 12,1 C 10,7 C 97 % 1007,8 hPa 0,0 l/m 0 min 0 min 0,0 UV-I 0 W/m 5,1 km/h (1 Bft)
31.05.2013 05:30 12,1 C 10,7 C 97 % 1007,8 hPa 0,0 l/m 0 min 0 min 0,0 UV-I 0 W/m 2,6 km/h (1 Bft)
31.05.2013 05:32 12,1 C 10,7 C 97 % 1007,9 hPa 0,0 l/m 0 min 0 min 0,0 UV-I 0 W/m 5,1 km/h (1 Bft)
31.05.2013 05:34 12,1 C 10,7 C 97 % 1007,8 hPa 0,0 l/m 0 min 0 min 0,0 UV-I 0 W/m 18,0 km/h (3 Bft)
31.05.2013 05:36 12,1 C 10,7 C 97 % 1007,8 hPa 0,0 l/m 0 min 0 min 0,0 UV-I 0 W/m 12,9 km/h (3 Bft)
31.05.2013 05:38 12,1 C 10,7 C 97 % 1007,8 hPa 0,0 l/m 0 min 0 min 0,0 UV-I 0 W/m 18,0 km/h (3 Bft)
31.05.2013 05:40 12,1 C 10,7 C 97 % 1007,8 hPa 0,0 l/m 0 min 0 min 0,0 UV-I 0 W/m 7,7 km/h (2 Bft)
31.05.2013 05:42 12,1 C 10,7 C 97 % 1007,9 hPa 0,0 l/m 0 min 0 min 0,0 UV-I 0 W/m 18,0 km/h (3 Bft)
31.05.2013 05:44 12,1 C 10,7 C 97 % 1007,9 hPa 0,0 l/m 0 min 0 min 0,0 UV-I 0 W/m 15,4 km/h (3 Bft)
31.05.2013 05:46 12,1 C 10,7 C 97 % 1007,8 hPa 0,0 l/m 0 min 0 min 0,0 UV-I 0 W/m 15,4 km/h (3 Bft)
31.05.2013 05:48 12,1 C 10,7 C 97 % 1007,8 hPa 0,0 l/m 0 min 0 min 0,0 UV-I 0 W/m 20,6 km/h (4 Bft)
31.05.2013 05:50 12,1 C 10,7 C 97 % 1007,8 hPa 0,0 l/m 0 min 0 min 0,0 UV-I 5 W/m 15,4 km/h (3 Bft)
31.05.2013 05:52 12,1 C 10,7 C 97 % 1007,8 hPa 0,0 l/m 0 min 0 min 0,0 UV-I 5 W/m 10,3 km/h (2 Bft)
31.05.2013 05:54 12,1 C 11,2 C 97 % 1007,7 hPa 0,0 l/m 0 min 0 min 0,0 UV-I 9 W/m 20,6 km/h (4 Bft)
31.05.2013 05:56 12,1 C 10,7 C 97 % 1007,8 hPa 0,0 l/m 0 min 0 min 0,0 UV-I 9 W/m 10,3 km/h (2 Bft)
31.05.2013 05:58 12,1 C 11,2 C 97 % 1007,8 hPa 0,0 l/m 0 min 0 min 0,0 UV-I 9 W/m 10,3 km/h (2 Bft)
31.05.2013 06:00 12,1 C 11,2 C 97 % 1007,8 hPa 0,0 l/m 0 min 0 min 0,0 UV-I 12 W/m 12,9 km/h (3 Bft)
31.05.2013 06:02 12,1 C 11,2 C 97 % 1007,9 hPa 0,0 l/m 0 min 0 min 0,0 UV-I 12 W/m 12,9 km/h (3 Bft)
31.05.2013 06:04 12,2 C 11,2 C 97 % 1007,9 hPa 0,0 l/m 0 min 0 min 0,0 UV-I 11 W/m 15,4 km/h (3 Bft)
31.05.2013 06:06 12,2 C 11,2 C 97 % 1007,9 hPa 0,0 l/m 0 min 0 min 0,0 UV-I 9 W/m 20,6 km/h (4 Bft)
31.05.2013 06:08 12,2 C 11,2 C 97 % 1007,8 hPa 0,0 l/m 0 min 0 min 0,0 UV-I 11 W/m 20,6 km/h (4 Bft)
31.05.2013 06:10 12,2 C 11,2 C 97 % 1007,7 hPa 0,0 l/m 0 min 0 min 0,0 UV-I 11 W/m 20,6 km/h (4 Bft)
31.05.2013 06:12 12,2 C 11,2 C 97 % 1007,8 hPa 0,0 l/m 0 min 0 min 0,0 UV-I 14 W/m 18,0 km/h (3 Bft)
31.05.2013 06:14 12,2 C 11,2 C 97 % 1007,8 hPa 0,0 l/m 0 min 0 min 0,0 UV-I 19 W/m 18,0 km/h (3 Bft)
31.05.2013 06:16 12,2 C 11,2 C 97 % 1007,9 hPa 0,0 l/m 0 min 0 min 0,0 UV-I 21 W/m 18,0 km/h (3 Bft)
31.05.2013 06:18 12,2 C 11,2 C 97 % 1007,9 hPa 0,0 l/m 0 min 0 min 0,0 UV-I 21 W/m 20,6 km/h (4 Bft)
31.05.2013 06:20 12,2 C 11,2 C 97 % 1007,9 hPa 0,0 l/m 0 min 0 min 0,0 UV-I 21 W/m 15,4 km/h (3 Bft)
31.05.2013 06:22 12,2 C 11,2 C 97 % 1007,9 hPa 0,0 l/m 0 min 0 min 0,0 UV-I 16 W/m 18,0 km/h (3 Bft)
31.05.2013 06:24 12,2 C 11,2 C 97 % 1008,0 hPa 0,0 l/m 0 min 0 min 0,0 UV-I 18 W/m 18,0 km/h (3 Bft)
31.05.2013 06:26 12,3 C 11,2 C 97 % 1007,8 hPa 0,0 l/m 0 min 0 min 0,0 UV-I 18 W/m 15,4 km/h (3 Bft)
31.05.2013 06:28 12,3 C 11,2 C 97 % 1007,9 hPa 0,0 l/m 0 min 0 min 0,0 UV-I 23 W/m 10,3 km/h (2 Bft)
31.05.2013 06:30 12,3 C 11,2 C 97 % 1007,9 hPa 0,0 l/m 0 min 0 min 0,0 UV-I 25 W/m 18,0 km/h (3 Bft)
31.05.2013 06:32 12,3 C 11,2 C 97 % 1007,9 hPa 0,0 l/m 0 min 0 min 0,0 UV-I 23 W/m 15,4 km/h (3 Bft)
31.05.2013 06:34 12,3 C 11,2 C 97 % 1007,9 hPa 0,0 l/m 0 min 0 min 0,0 UV-I 21 W/m 18,0 km/h (3 Bft)
31.05.2013 06:36 12,3 C 11,2 C 97 % 1008,0 hPa 0,0 l/m 0 min 0 min 0,0 UV-I 16 W/m 7,7 km/h (2 Bft)
31.05.2013 06:38 12,3 C 11,2 C 97 % 1008,0 hPa 0,0 l/m 0 min 0 min 0,0 UV-I 18 W/m 23,2 km/h (4 Bft)
31.05.2013 06:40 12,3 C 11,2 C 97 % 1008,0 hPa 0,0 l/m 0 min 0 min 0,0 UV-I 26 W/m 12,9 km/h (3 Bft)
31.05.2013 06:42 12,3 C 11,2 C 97 % 1007,9 hPa 0,0 l/m 0 min 0 min 0,0 UV-I 35 W/m 18,0 km/h (3 Bft)
31.05.2013 06:44 12,3 C 11,2 C 97 % 1007,8 hPa 0,0 l/m 0 min 0 min 0,0 UV-I 32 W/m 20,6 km/h (4 Bft)
31.05.2013 06:46 12,3 C 11,2 C 97 % 1007,9 hPa 0,0 l/m 0 min 0 min 0,0 UV-I 28 W/m 18,0 km/h (3 Bft)
31.05.2013 06:48 12,4 C 11,2 C 97 % 1007,8 hPa 0,0 l/m 0 min 0 min 0,0 UV-I 32 W/m 20,6 km/h (4 Bft)
31.05.2013 06:50 12,4 C 11,2 C 97 % 1007,8 hPa 0,0 l/m 0 min 0 min 0,0 UV-I 30 W/m 7,7 km/h (2 Bft)
31.05.2013 06:52 12,4 C 11,2 C 97 % 1007,8 hPa 0,0 l/m 0 min 0 min 0,0 UV-I 30 W/m 18,0 km/h (3 Bft)
31.05.2013 06:54 12,4 C 11,2 C 97 % 1007,7 hPa 0,0 l/m 0 min 0 min 0,0 UV-I 28 W/m 0,0 km/h (0 Bft)
31.05.2013 06:56 12,4 C 11,2 C 97 % 1007,8 hPa 0,0 l/m 0 min 0 min 0,0 UV-I 26 W/m 7,7 km/h (2 Bft)
31.05.2013 06:58 12,4 C 11,2 C 97 % 1007,7 hPa 0,0 l/m 0 min 0 min 0,0 UV-I 33 W/m 0,0 km/h (0 Bft)
31.05.2013 07:00 12,4 C 11,2 C 97 % 1007,7 hPa 0,0 l/m 0 min 0 min 0,0 UV-I 33 W/m 5,1 km/h (1 Bft)
31.05.2013 07:02 12,4 C 11,2 C 97 % 1007,6 hPa 0,0 l/m 0 min 0 min 0,0 UV-I 40 W/m 12,9 km/h (3 Bft)
31.05.2013 07:04 12,4 C 11,2 C 97 % 1007,6 hPa 0,0 l/m 0 min 0 min 0,0 UV-I 42 W/m 5,1 km/h (1 Bft)
31.05.2013 07:06 12,5 C 11,2 C 97 % 1007,6 hPa 0,0 l/m 0 min 0 min 0,0 UV-I 44 W/m 12,9 km/h (3 Bft)
31.05.2013 07:08 12,5 C 11,2 C 97 % 1007,6 hPa 0,0 l/m 0 min 0 min 0,0 UV-I 51 W/m 12,9 km/h (3 Bft)
31.05.2013 07:10 12,5 C 11,2 C 97 % 1007,7 hPa 0,0 l/m 0 min 0 min 0,0 UV-I 49 W/m 18,0 km/h (3 Bft)
31.05.2013 07:12 12,6 C 11,8 C 97 % 1007,8 hPa 0,0 l/m 0 min 0 min 0,0 UV-I 39 W/m 5,1 km/h (1 Bft)
31.05.2013 07:14 12,6 C 11,2 C 97 % 1007,8 hPa 0,0 l/m 0 min 0 min 0,0 UV-I 54 W/m 15,4 km/h (3 Bft)
31.05.2013 07:16 12,6 C 11,8 C 97 % 1007,7 hPa 0,0 l/m 0 min 0 min 0,0 UV-I 72 W/m 15,4 km/h (3 Bft)
31.05.2013 07:18 12,6 C 11,8 C 97 % 1007,7 hPa 0,0 l/m 0 min 0 min 0,0 UV-I 60 W/m 0,0 km/h (0 Bft)
31.05.2013 07:20 12,6 C 11,8 C 97 % 1007,6 hPa 0,0 l/m 0 min 0 min 0,0 UV-I 53 W/m 18,0 km/h (3 Bft)
31.05.2013 07:22 12,6 C 11,8 C 97 % 1007,7 hPa 0,0 l/m 0 min 0 min 0,0 UV-I 53 W/m 10,3 km/h (2 Bft)
31.05.2013 07:24 12,6 C 11,8 C 97 % 1007,7 hPa 0,0 l/m 0 min 0 min 0,0 UV-I 65 W/m 7,7 km/h (2 Bft)
31.05.2013 07:26 12,7 C 11,8 C 97 % 1007,8 hPa 0,0 l/m 0 min 0 min 0,0 UV-I 72 W/m 15,4 km/h (3 Bft)
31.05.2013 07:28 12,7 C 11,8 C 97 % 1007,7 hPa 0,0 l/m 0 min 0 min 0,0 UV-I 77 W/m 15,4 km/h (3 Bft)
31.05.2013 07:30 12,7 C 11,8 C 97 % 1007,8 hPa 0,0 l/m 0 min 0 min 0,0 UV-I 81 W/m 10,3 km/h (2 Bft)
31.05.2013 07:32 12,7 C 11,8 C 97 % 1007,9 hPa 0,0 l/m 0 min 0 min 0,0 UV-I 72 W/m 18,0 km/h (3 Bft)
31.05.2013 07:34 12,7 C 11,8 C 97 % 1007,9 hPa 0,0 l/m 0 min 0 min 0,0 UV-I 72 W/m 12,9 km/h (3 Bft)
31.05.2013 07:36 12,7 C 11,8 C 97 % 1007,8 hPa 0,0 l/m 0 min 0 min 0,0 UV-I 88 W/m 23,2 km/h (4 Bft)
31.05.2013 07:38 12,7 C 11,8 C 97 % 1007,9 hPa 0,0 l/m 0 min 0 min 0,0 UV-I 76 W/m 20,6 km/h (4 Bft)
31.05.2013 07:40 12,7 C 11,8 C 97 % 1007,9 hPa 0,0 l/m 0 min 0 min 0,0 UV-I 84 W/m 20,6 km/h (4 Bft)
31.05.2013 07:42 12,8 C 11,8 C 97 % 1008,0 hPa 0,0 l/m 0 min 0 min 0,0 UV-I 98 W/m 18,0 km/h (3 Bft)
31.05.2013 07:44 12,8 C 11,8 C 97 % 1007,9 hPa 0,0 l/m 0 min 0 min 0,0 UV-I 102 W/m 18,0 km/h (3 Bft)
31.05.2013 07:46 12,8 C 12,3 C 97 % 1008,0 hPa 0,0 l/m 0 min 0 min 0,0 UV-I 102 W/m 20,6 km/h (4 Bft)
31.05.2013 07:48 12,8 C 12,3 C 97 % 1007,9 hPa 0,0 l/m 0 min 0 min 0,0 UV-I 91 W/m 23,2 km/h (4 Bft)
31.05.2013 07:50 12,8 C 12,3 C 97 % 1008,0 hPa 0,0 l/m 0 min 0 min 0,0 UV-I 70 W/m 20,6 km/h (4 Bft)
31.05.2013 07:52 12,8 C 11,8 C 97 % 1007,9 hPa 0,0 l/m 0 min 0 min 0,0 UV-I 65 W/m 20,6 km/h (4 Bft)
31.05.2013 07:54 12,9 C 11,8 C 97 % 1007,9 hPa 0,0 l/m 0 min 0 min 0,0 UV-I 67 W/m 20,6 km/h (4 Bft)
31.05.2013 07:56 12,9 C 11,8 C 96 % 1008,0 hPa 0,0 l/m 0 min 0 min 0,0 UV-I 76 W/m 15,4 km/h (3 Bft)
31.05.2013 07:58 12,9 C 12,3 C 97 % 1008,1 hPa 0,0 l/m 0 min 0 min 0,0 UV-I 69 W/m 12,9 km/h (3 Bft)
31.05.2013 08:00 12,9 C 12,3 C 97 % 1008,1 hPa 0,0 l/m 0 min 0 min 0,0 UV-I 79 W/m 10,3 km/h (2 Bft)
31.05.2013 08:02 12,9 C 12,3 C 96 % 1008,0 hPa 0,0 l/m 0 min 0 min 0,0 UV-I 77 W/m 18,0 km/h (3 Bft)
31.05.2013 08:04 12,9 C 12,3 C 96 % 1008,1 hPa 0,0 l/m 0 min 0 min 0,0 UV-I 65 W/m 23,2 km/h (4 Bft)
31.05.2013 08:06 12,9 C 12,3 C 96 % 1008,0 hPa 0,0 l/m 0 min 0 min 0,0 UV-I 70 W/m 23,2 km/h (4 Bft)
31.05.2013 08:08 12,9 C 12,3 C 96 % 1007,9 hPa 0,0 l/m 0 min 0 min 0,0 UV-I 70 W/m 18,0 km/h (3 Bft)
31.05.2013 08:10 13,0 C 12,3 C 96 % 1007,8 hPa 0,0 l/m 0 min 0 min 0,0 UV-I 70 W/m 0,0 km/h (0 Bft)
31.05.2013 08:12 13,0 C 12,3 C 96 % 1007,9 hPa 0,0 l/m 0 min 0 min 0,0 UV-I 69 W/m 10,3 km/h (2 Bft)
31.05.2013 08:14 13,1 C 12,3 C 96 % 1007,9 hPa 0,0 l/m 0 min 0 min 0,0 UV-I 67 W/m 15,4 km/h (3 Bft)
31.05.2013 08:16 13,1 C 12,3 C 96 % 1007,9 hPa 0,0 l/m 0 min 0 min 0,0 UV-I 72 W/m 0,0 km/h (0 Bft)
31.05.2013 08:18 13,1 C 12,3 C 96 % 1008,0 hPa 0,0 l/m 0 min 0 min 0,0 UV-I 74 W/m 7,7 km/h (2 Bft)
31.05.2013 08:20 13,1 C 12,3 C 96 % 1007,9 hPa 0,0 l/m 0 min 0 min 0,0 UV-I 83 W/m 5,1 km/h (1 Bft)
31.05.2013 08:22 13,1 C 12,3 C 96 % 1008,0 hPa 0,0 l/m 0 min 0 min 0,0 UV-I 90 W/m 12,9 km/h (3 Bft)
31.05.2013 08:24 13,1 C 12,3 C 96 % 1008,2 hPa 0,0 l/m 0 min 0 min 0,0 UV-I 93 W/m 15,4 km/h (3 Bft)
31.05.2013 08:26 13,1 C 12,3 C 96 % 1008,1 hPa 0,0 l/m 0 min 0 min 0,0 UV-I 95 W/m 12,9 km/h (3 Bft)
31.05.2013 08:28 13,1 C 12,3 C 96 % 1008,1 hPa 0,0 l/m 0 min 0 min 0,0 UV-I 91 W/m 2,6 km/h (1 Bft)
31.05.2013 08:30 13,1 C 12,3 C 96 % 1008,3 hPa 0,0 l/m 0 min 0 min 0,0 UV-I 90 W/m 7,7 km/h (2 Bft)
31.05.2013 08:32 13,2 C 12,3 C 96 % 1008,2 hPa 0,0 l/m 0 min 0 min 0,0 UV-I 91 W/m 10,3 km/h (2 Bft)
31.05.2013 08:34 13,2 C 12,9 C 96 % 1008,3 hPa 0,0 l/m 0 min 0 min 0,0 UV-I 91 W/m 23,2 km/h (4 Bft)
31.05.2013 08:36 13,2 C 12,9 C 96 % 1008,2 hPa 0,0 l/m 0 min 0 min 0,0 UV-I 91 W/m 18,0 km/h (3 Bft)
31.05.2013 08:38 13,2 C 12,9 C 96 % 1008,2 hPa 0,0 l/m 0 min 0 min 0,0 UV-I 93 W/m 12,9 km/h (3 Bft)
31.05.2013 08:40 13,2 C 12,9 C 96 % 1008,2 hPa 0,0 l/m 0 min 0 min 0,0 UV-I 97 W/m 15,4 km/h (3 Bft)
31.05.2013 08:42 13,2 C 12,9 C 96 % 1008,1 hPa 0,0 l/m 0 min 0 min 0,0 UV-I 98 W/m 12,9 km/h (3 Bft)
31.05.2013 08:44 13,2 C 12,9 C 96 % 1008,0 hPa 0,0 l/m 0 min 0 min 0,0 UV-I 86 W/m 7,7 km/h (2 Bft)
31.05.2013 08:46 13,3 C 12,9 C 95 % 1008,1 hPa 0,0 l/m 0 min 0 min 0,0 UV-I 72 W/m 15,4 km/h (3 Bft)
31.05.2013 08:48 13,3 C 12,9 C 95 % 1008,2 hPa 0,0 l/m 0 min 0 min 0,0 UV-I 70 W/m 10,3 km/h (2 Bft)
31.05.2013 08:50 13,3 C 12,9 C 95 % 1008,2 hPa 0,0 l/m 0 min 0 min 0,0 UV-I 79 W/m 10,3 km/h (2 Bft)
31.05.2013 08:52 13,3 C 12,9 C 95 % 1008,2 hPa 0,0 l/m 0 min 0 min 0,0 UV-I 79 W/m 10,3 km/h (2 Bft)
31.05.2013 08:54 13,3 C 12,9 C 95 % 1008,3 hPa 0,0 l/m 0 min 0 min 0,0 UV-I 72 W/m 12,9 km/h (3 Bft)
31.05.2013 08:56 13,3 C 12,9 C 95 % 1008,3 hPa 0,0 l/m 0 min 0 min 0,0 UV-I 74 W/m 15,4 km/h (3 Bft)
31.05.2013 08:58 13,3 C 12,9 C 95 % 1008,3 hPa 0,0 l/m 0 min 2 min 0,0 UV-I 79 W/m 12,9 km/h (3 Bft)
31.05.2013 09:00 13,4 C 12,9 C 95 % 1008,4 hPa 0,0 l/m 0 min 2 min 0,0 UV-I 84 W/m 7,7 km/h (2 Bft)
31.05.2013 09:02 13,4 C 12,9 C 95 % 1008,3 hPa 0,0 l/m 0 min 2 min 0,0 UV-I 90 W/m 12,9 km/h (3 Bft)
31.05.2013 09:04 13,4 C 12,9 C 95 % 1008,3 hPa 0,0 l/m 0 min 2 min 0,0 UV-I 86 W/m 18,0 km/h (3 Bft)
31.05.2013 09:06 13,4 C 12,9 C 95 % 1008,3 hPa 0,0 l/m 0 min 2 min 0,0 UV-I 98 W/m 12,9 km/h (3 Bft)
31.05.2013 09:08 13,4 C 12,9 C 95 % 1008,3 hPa 0,0 l/m 0 min 2 min 0,0 UV-I 107 W/m 15,4 km/h (3 Bft)
31.05.2013 09:10 13,4 C 12,9 C 95 % 1008,3 hPa 0,0 l/m 0 min 0 min 0,0 UV-I 104 W/m 18,0 km/h (3 Bft)
31.05.2013 09:12 13,5 C 12,9 C 94 % 1008,3 hPa 0,0 l/m 0 min 2 min 0,0 UV-I 107 W/m 18,0 km/h (3 Bft)
31.05.2013 09:14 13,5 C 12,9 C 94 % 1008,3 hPa 0,0 l/m 0 min 2 min 0,0 UV-I 107 W/m 15,4 km/h (3 Bft)
31.05.2013 09:16 13,6 C 12,9 C 94 % 1008,3 hPa 0,0 l/m 0 min 2 min 0,0 UV-I 107 W/m 10,3 km/h (2 Bft)
31.05.2013 09:18 13,6 C 12,9 C 94 % 1008,4 hPa 0,0 l/m 0 min 0 min 0,0 UV-I 111 W/m 10,3 km/h (2 Bft)
31.05.2013 09:20 13,6 C 12,9 C 94 % 1008,4 hPa 0,0 l/m 0 min 2 min 0,0 UV-I 116 W/m 12,9 km/h (3 Bft)
31.05.2013 09:22 13,6 C 12,9 C 94 % 1008,3 hPa 0,0 l/m 0 min 2 min 0,0 UV-I 123 W/m 15,4 km/h (3 Bft)
31.05.2013 09:24 13,7 C 12,9 C 94 % 1008,3 hPa 0,0 l/m 0 min 2 min 0,0 UV-I 128 W/m 12,9 km/h (3 Bft)
31.05.2013 09:26 13,7 C 12,9 C 94 % 1008,3 hPa 0,0 l/m 0 min 2 min 0,0 UV-I 127 W/m 28,3 km/h (4 Bft)
31.05.2013 09:28 13,7 C 12,9 C 93 % 1008,3 hPa 0,0 l/m 0 min 2 min 0,0 UV-I 121 W/m 10,3 km/h (2 Bft)
31.05.2013 09:30 13,8 C 12,9 C 93 % 1008,3 hPa 0,0 l/m 0 min 2 min 0,0 UV-I 125 W/m 20,6 km/h (4 Bft)
31.05.2013 09:32 13,8 C 12,9 C 93 % 1008,3 hPa 0,0 l/m 0 min 2 min 0,0 UV-I 134 W/m 15,4 km/h (3 Bft)
31.05.2013 09:34 13,8 C 13,4 C 93 % 1008,3 hPa 0,0 l/m 0 min 2 min 0,0 UV-I 139 W/m 25,7 km/h (4 Bft)
31.05.2013 09:36 13,9 C 13,4 C 93 % 1008,3 hPa 0,0 l/m 0 min 0 min 0,0 UV-I 132 W/m 10,3 km/h (2 Bft)
31.05.2013 09:38 13,9 C 13,4 C 93 % 1008,4 hPa 0,0 l/m 0 min 0 min 0,0 UV-I 125 W/m 2,6 km/h (1 Bft)
31.05.2013 09:40 14,0 C 13,4 C 93 % 1008,3 hPa 0,0 l/m 0 min 0 min 0,0 UV-I 121 W/m 12,9 km/h (3 Bft)
31.05.2013 09:42 14,0 C 13,4 C 93 % 1008,3 hPa 0,0 l/m 0 min 0 min 0,0 UV-I 105 W/m 12,9 km/h (3 Bft)
31.05.2013 09:44 14,0 C 13,4 C 92 % 1008,3 hPa 0,0 l/m 0 min 0 min 0,0 UV-I 102 W/m 7,7 km/h (2 Bft)
31.05.2013 09:46 14,0 C 13,4 C 92 % 1008,3 hPa 0,0 l/m 0 min 0 min 0,0 UV-I 109 W/m 18,0 km/h (3 Bft)
31.05.2013 09:48 14,0 C 13,4 C 92 % 1008,3 hPa 0,0 l/m 0 min 0 min 0,0 UV-I 114 W/m 18,0 km/h (3 Bft)
31.05.2013 09:50 14,1 C 14,0 C 92 % 1008,3 hPa 0,0 l/m 0 min 0 min 0,0 UV-I 107 W/m 7,7 km/h (2 Bft)
31.05.2013 09:52 14,1 C 14,0 C 92 % 1008,3 hPa 0,0 l/m 0 min 0 min 0,0 UV-I 104 W/m 2,6 km/h (1 Bft)
31.05.2013 09:54 14,2 C 14,0 C 92 % 1008,4 hPa 0,0 l/m 0 min 0 min 0,0 UV-I 111 W/m 10,3 km/h (2 Bft)
31.05.2013 09:56 14,2 C 14,0 C 92 % 1008,4 hPa 0,0 l/m 0 min 0 min 0,0 UV-I 113 W/m 7,7 km/h (2 Bft)
31.05.2013 09:58 14,2 C 14,0 C 92 % 1008,3 hPa 0,0 l/m 0 min 0 min 0,0 UV-I 125 W/m 20,6 km/h (4 Bft)
31.05.2013 10:00 14,2 C 14,0 C 92 % 1008,3 hPa 0,0 l/m 0 min 0 min 0,0 UV-I 137 W/m 20,6 km/h (4 Bft)
31.05.2013 10:02 14,3 C 14,0 C 92 % 1008,3 hPa 0,0 l/m 0 min 0 min 0,0 UV-I 163 W/m 15,4 km/h (3 Bft)
31.05.2013 10:04 14,3 C 14,6 C 91 % 1008,3 hPa 0,0 l/m 0 min 0 min 0,0 UV-I 193 W/m 18,0 km/h (3 Bft)
31.05.2013 10:06 14,4 C 14,6 C 91 % 1008,3 hPa 0,0 l/m 0 min 0 min 0,0 UV-I 192 W/m 12,9 km/h (3 Bft)
31.05.2013 10:08 14,4 C 14,6 C 91 % 1008,4 hPa 0,0 l/m 0 min 0 min 0,0 UV-I 186 W/m 23,2 km/h (4 Bft)
31.05.2013 10:10 14,5 C 14,6 C 91 % 1008,3 hPa 0,0 l/m 0 min 0 min 0,0 UV-I 193 W/m 15,4 km/h (3 Bft)
31.05.2013 10:12 14,6 C 14,6 C 90 % 1008,3 hPa 0,0 l/m 0 min 0 min 0,0 UV-I 195 W/m 20,6 km/h (4 Bft)
31.05.2013 10:14 14,6 C 15,1 C 90 % 1008,4 hPa 0,0 l/m 0 min 0 min 0,0 UV-I 200 W/m 12,9 km/h (3 Bft)
31.05.2013 10:16 14,7 C 15,1 C 90 % 1008,3 hPa 0,0 l/m 0 min 0 min 0,0 UV-I 227 W/m 15,4 km/h (3 Bft)
31.05.2013 10:18 14,8 C 15,1 C 89 % 1008,3 hPa 0,0 l/m 0 min 0 min 0,6 UV-I 244 W/m 20,6 km/h (4 Bft)
31.05.2013 10:20 14,9 C 15,1 C 89 % 1008,3 hPa 0,0 l/m 0 min 0 min 0,7 UV-I 260 W/m 23,2 km/h (4 Bft)
31.05.2013 10:22 14,9 C 15,7 C 89 % 1008,3 hPa 0,0 l/m 0 min 0 min 0,7 UV-I 267 W/m 18,0 km/h (3 Bft)
31.05.2013 10:24 15,1 C 15,7 C 88 % 1008,3 hPa 0,0 l/m 0 min 0 min 0,7 UV-I 264 W/m 12,9 km/h (3 Bft)
31.05.2013 10:26 15,2 C 15,7 C 88 % 1008,4 hPa 0,0 l/m 0 min 0 min 0,6 UV-I 251 W/m 20,6 km/h (4 Bft)
31.05.2013 10:28 15,2 C 15,7 C 88 % 1008,3 hPa 0,0 l/m 0 min 0 min 0,6 UV-I 250 W/m 18,0 km/h (3 Bft)
31.05.2013 10:30 15,3 C 15,7 C 88 % 1008,4 hPa 0,0 l/m 0 min 0 min 0,8 UV-I 267 W/m 20,6 km/h (4 Bft)
31.05.2013 10:32 15,4 C 15,7 C 87 % 1008,4 hPa 0,0 l/m 0 min 0 min 0,9 UV-I 278 W/m 20,6 km/h (4 Bft)
31.05.2013 10:34 15,4 C 16,2 C 87 % 1008,3 hPa 0,0 l/m 0 min 0 min 0,9 UV-I 290 W/m 18,0 km/h (3 Bft)
31.05.2013 10:36 15,6 C 16,2 C 87 % 1008,3 hPa 0,0 l/m 0 min 0 min 0,9 UV-I 287 W/m 12,9 km/h (3 Bft)
31.05.2013 10:38 15,6 C 16,2 C 86 % 1008,3 hPa 0,0 l/m 0 min 0 min 0,9 UV-I 288 W/m 20,6 km/h (4 Bft)
31.05.2013 10:40 15,7 C 16,2 C 85 % 1008,3 hPa 0,0 l/m 0 min 0 min 0,9 UV-I 292 W/m 15,4 km/h (3 Bft)
31.05.2013 10:42 15,8 C 16,2 C 85 % 1008,4 hPa 0,0 l/m 0 min 0 min 1,0 UV-I 302 W/m 20,6 km/h (4 Bft)
31.05.2013 10:44 15,9 C 16,8 C 85 % 1008,4 hPa 0,0 l/m 0 min 0 min 1,0 UV-I 301 W/m 18,0 km/h (3 Bft)
31.05.2013 10:46 15,9 C 16,8 C 85 % 1008,3 hPa 0,0 l/m 0 min 0 min 1,0 UV-I 288 W/m 18,0 km/h (3 Bft)
31.05.2013 10:48 16,1 C 16,8 C 85 % 1008,2 hPa 0,0 l/m 0 min 0 min 1,0 UV-I 278 W/m 15,4 km/h (3 Bft)
31.05.2013 10:50 16,1 C 16,8 C 83 % 1008,2 hPa 0,0 l/m 0 min 0 min 0,9 UV-I 264 W/m 23,2 km/h (4 Bft)
31.05.2013 10:52 16,2 C 16,8 C 83 % 1008,3 hPa 0,0 l/m 0 min 0 min 0,8 UV-I 246 W/m 15,4 km/h (3 Bft)
31.05.2013 10:54 16,3 C 16,8 C 82 % 1008,3 hPa 0,0 l/m 0 min 0 min 0,8 UV-I 237 W/m 18,0 km/h (3 Bft)
31.05.2013 10:56 16,3 C 16,2 C 81 % 1008,4 hPa 0,0 l/m 0 min 0 min 0,7 UV-I 227 W/m 23,2 km/h (4 Bft)
31.05.2013 10:58 16,4 C 16,2 C 80 % 1008,3 hPa 0,0 l/m 0 min 0 min 0,6 UV-I 206 W/m 15,4 km/h (3 Bft)
31.05.2013 11:00 16,4 C 16,2 C 80 % 1008,3 hPa 0,0 l/m 0 min 0 min 0,7 UV-I 216 W/m 23,2 km/h (4 Bft)
31.05.2013 11:02 16,5 C 16,2 C 79 % 1008,3 hPa 0,0 l/m 0 min 0 min 0,9 UV-I 250 W/m 23,2 km/h (4 Bft)
31.05.2013 11:04 16,6 C 16,2 C 78 % 1008,4 hPa 0,0 l/m 0 min 0 min 0,8 UV-I 237 W/m 18,0 km/h (3 Bft)
31.05.2013 11:06 16,7 C 16,2 C 78 % 1008,4 hPa 0,0 l/m 0 min 0 min 0,6 UV-I 211 W/m 18,0 km/h (3 Bft)
31.05.2013 11:08 16,7 C 16,2 C 78 % 1008,3 hPa 0,0 l/m 0 min 0 min 0,7 UV-I 214 W/m 23,2 km/h (4 Bft)
31.05.2013 11:10 16,7 C 16,2 C 78 % 1008,4 hPa 0,0 l/m 0 min 0 min 0,8 UV-I 225 W/m 15,4 km/h (3 Bft)
31.05.2013 11:12 16,8 C 16,8 C 77 % 1008,4 hPa 0,0 l/m 0 min 0 min 0,7 UV-I 213 W/m 20,6 km/h (4 Bft)
31.05.2013 11:14 16,8 C 16,8 C 77 % 1008,3 hPa 0,0 l/m 0 min 0 min 0,6 UV-I 200 W/m 23,2 km/h (4 Bft)
31.05.2013 11:16 16,8 C 16,8 C 76 % 1008,5 hPa 0,0 l/m 0 min 0 min 0,8 UV-I 223 W/m 18,0 km/h (3 Bft)
31.05.2013 11:18 16,9 C 16,8 C 76 % 1008,5 hPa 0,0 l/m 0 min 0 min 0,9 UV-I 239 W/m 28,3 km/h (4 Bft)
31.05.2013 11:20 16,9 C 16,8 C 75 % 1008,4 hPa 0,0 l/m 0 min 0 min 1,0 UV-I 244 W/m 20,6 km/h (4 Bft)
31.05.2013 11:22 17,0 C 16,8 C 75 % 1008,4 hPa 0,0 l/m 0 min 0 min 1,1 UV-I 262 W/m 18,0 km/h (3 Bft)
31.05.2013 11:24 17,1 C 16,8 C 75 % 1008,4 hPa 0,0 l/m 0 min 0 min 1,2 UV-I 283 W/m 20,6 km/h (4 Bft)
31.05.2013 11:26 17,1 C 17,3 C 74 % 1008,4 hPa 0,0 l/m 0 min 0 min 1,1 UV-I 260 W/m 25,7 km/h (4 Bft)
31.05.2013 11:28 17,2 C 17,3 C 74 % 1008,4 hPa 0,0 l/m 0 min 0 min 1,2 UV-I 262 W/m 18,0 km/h (3 Bft)
31.05.2013 11:30 17,2 C 17,3 C 74 % 1008,4 hPa 0,0 l/m 0 min 0 min 1,3 UV-I 279 W/m 18,0 km/h (3 Bft)
31.05.2013 11:32 17,3 C 17,3 C 74 % 1008,5 hPa 0,0 l/m 0 min 0 min 1,3 UV-I 297 W/m 23,2 km/h (4 Bft)
31.05.2013 11:34 17,3 C 17,3 C 74 % 1008,3 hPa 0,0 l/m 0 min 0 min 1,4 UV-I 302 W/m 20,6 km/h (4 Bft)
31.05.2013 11:36 17,4 C 17,3 C 74 % 1008,4 hPa 0,0 l/m 0 min 0 min 1,5 UV-I 316 W/m 30,9 km/h (5 Bft)
31.05.2013 11:38 17,4 C 17,9 C 74 % 1008,4 hPa 0,0 l/m 0 min 0 min 1,7 UV-I 345 W/m 15,4 km/h (3 Bft)
31.05.2013 11:40 17,6 C 17,9 C 74 % 1008,3 hPa 0,0 l/m 0 min 0 min 1,8 UV-I 359 W/m 18,0 km/h (3 Bft)
31.05.2013 11:42 17,6 C 17,9 C 75 % 1008,3 hPa 0,0 l/m 0 min 0 min 1,9 UV-I 383 W/m 28,3 km/h (4 Bft)
31.05.2013 11:44 17,8 C 18,4 C 74 % 1008,3 hPa 0,0 l/m 0 min 0 min 2,6 UV-I 427 W/m 23,2 km/h (4 Bft)
31.05.2013 11:46 18,0 C 18,4 C 73 % 1008,3 hPa 0,0 l/m 0 min 0 min 1,9 UV-I 427 W/m 28,3 km/h (4 Bft)
31.05.2013 11:48 18,2 C 18,4 C 72 % 1008,3 hPa 0,0 l/m 0 min 0 min 1,7 UV-I 338 W/m 30,9 km/h (5 Bft)
31.05.2013 11:50 18,3 C 17,9 C 71 % 1008,2 hPa 0,0 l/m 0 min 0 min 1,7 UV-I 352 W/m 25,7 km/h (4 Bft)
31.05.2013 11:52 18,3 C 18,4 C 72 % 1008,2 hPa 0,0 l/m 0 min 0 min 1,9 UV-I 380 W/m 15,4 km/h (3 Bft)
31.05.2013 11:54 18,4 C 18,4 C 71 % 1008,3 hPa 0,0 l/m 0 min 0 min 2,1 UV-I 424 W/m 38,6 km/h (5 Bft)
31.05.2013 11:56 18,6 C 19,0 C 71 % 1008,3 hPa 0,0 l/m 2 min 0 min 2,5 UV-I 487 W/m 28,3 km/h (4 Bft)
31.05.2013 11:58 18,7 C 19,6 C 70 % 1008,2 hPa 0,0 l/m 2 min 0 min 2,9 UV-I 504 W/m 18,0 km/h (3 Bft)
31.05.2013 12:00 18,9 C 19,6 C 70 % 1008,3 hPa 0,0 l/m 2 min 0 min 2,5 UV-I 483 W/m 25,7 km/h (4 Bft)
31.05.2013 12:02 18,9 C 19,6 C 70 % 1008,3 hPa 0,0 l/m 0 min 0 min 2,2 UV-I 411 W/m 28,3 km/h (4 Bft)
31.05.2013 12:04 19,1 C 19,6 C 71 % 1008,2 hPa 0,0 l/m 0 min 0 min 2,2 UV-I 392 W/m 38,6 km/h (5 Bft)
31.05.2013 12:06 19,1 C 19,0 C 67 % 1008,4 hPa 0,0 l/m 0 min 0 min 2,2 UV-I 422 W/m 33,5 km/h (5 Bft)
31.05.2013 12:08 19,2 C 19,6 C 66 % 1008,3 hPa 0,0 l/m 2 min 0 min 2,5 UV-I 466 W/m 25,7 km/h (4 Bft)
31.05.2013 12:10 19,2 C 20,1 C 67 % 1008,2 hPa 0,0 l/m 2 min 0 min 2,8 UV-I 534 W/m 30,9 km/h (5 Bft)
31.05.2013 12:12 19,3 C 20,7 C 66 % 1008,3 hPa 0,0 l/m 2 min 0 min 3,1 UV-I 606 W/m 28,3 km/h (4 Bft)
31.05.2013 12:14 19,4 C 21,8 C 66 % 1008,3 hPa 0,0 l/m 2 min 0 min 4,4 UV-I 635 W/m 36,0 km/h (5 Bft)
31.05.2013 12:16 19,7 C 21,8 C 65 % 1008,3 hPa 0,0 l/m 0 min 0 min 2,9 UV-I 429 W/m 30,9 km/h (5 Bft)
31.05.2013 12:18 19,8 C 21,2 C 66 % 1008,3 hPa 0,0 l/m 0 min 0 min 2,6 UV-I 432 W/m 20,6 km/h (4 Bft)
31.05.2013 12:20 19,9 C 21,2 C 65 % 1008,2 hPa 0,0 l/m 2 min 0 min 3,1 UV-I 592 W/m 33,5 km/h (5 Bft)
31.05.2013 12:22 20,0 C 22,3 C 64 % 1008,2 hPa 0,0 l/m 2 min 0 min 3,5 UV-I 592 W/m 33,5 km/h (5 Bft)
31.05.2013 12:24 20,1 C 21,8 C 64 % 1008,2 hPa 0,0 l/m 2 min 0 min 2,9 UV-I 714 W/m 28,3 km/h (4 Bft)
31.05.2013 12:26 20,2 C 21,2 C 64 % 1008,2 hPa 0,0 l/m 0 min 0 min 2,3 UV-I 410 W/m 25,7 km/h (4 Bft)
31.05.2013 12:28 20,3 C 21,2 C 65 % 1008,1 hPa 0,0 l/m 0 min 0 min 2,3 UV-I 408 W/m 25,7 km/h (4 Bft)
31.05.2013 12:30 20,2 C 20,7 C 63 % 1008,2 hPa 0,0 l/m 0 min 0 min 2,5 UV-I 418 W/m 30,9 km/h (5 Bft)
31.05.2013 12:32 20,2 C 20,1 C 63 % 1008,2 hPa 0,0 l/m 0 min 0 min 2,5 UV-I 443 W/m 38,6 km/h (5 Bft)
31.05.2013 12:34 20,1 C 20,7 C 62 % 1008,2 hPa 0,0 l/m 2 min 0 min 3,1 UV-I 508 W/m 36,0 km/h (5 Bft)
31.05.2013 12:36 20,0 C 20,7 C 63 % 1008,2 hPa 0,0 l/m 2 min 0 min 2,6 UV-I 480 W/m 25,7 km/h (4 Bft)
31.05.2013 12:38 20,1 C 21,8 C 64 % 1008,2 hPa 0,0 l/m 2 min 0 min 2,8 UV-I 733 W/m 33,5 km/h (5 Bft)
31.05.2013 12:40 20,2 C 21,8 C 64 % 1008,2 hPa 0,0 l/m 2 min 0 min 2,9 UV-I 545 W/m 25,7 km/h (4 Bft)
31.05.2013 12:42 20,2 C 21,2 C 63 % 1008,2 hPa 0,0 l/m 0 min 0 min 2,4 UV-I 441 W/m 33,5 km/h (5 Bft)
31.05.2013 12:44 20,2 C 20,7 C 62 % 1008,3 hPa 0,0 l/m 2 min 0 min 2,6 UV-I 547 W/m 38,6 km/h (5 Bft)
31.05.2013 12:46 20,2 C 21,2 C 62 % 1008,2 hPa 0,0 l/m 2 min 0 min 2,6 UV-I 628 W/m 30,9 km/h (5 Bft)
31.05.2013 12:48 20,2 C 21,2 C 61 % 1008,3 hPa 0,0 l/m 2 min 0 min 2,9 UV-I 594 W/m 30,9 km/h (5 Bft)
31.05.2013 12:50 20,2 C 21,8 C 62 % 1008,3 hPa 0,0 l/m 2 min 0 min 2,9 UV-I 605 W/m 25,7 km/h (4 Bft)
31.05.2013 12:52 20,3 C 21,2 C 62 % 1008,4 hPa 0,0 l/m 0 min 0 min 2,2 UV-I 387 W/m 25,7 km/h (4 Bft)
31.05.2013 12:54 20,3 C 20,7 C 62 % 1008,3 hPa 0,0 l/m 0 min 0 min 2,2 UV-I 381 W/m 25,7 km/h (4 Bft)
31.05.2013 12:56 20,3 C 20,7 C 62 % 1008,3 hPa 0,0 l/m 0 min 0 min 2,4 UV-I 434 W/m 33,5 km/h (5 Bft)
31.05.2013 12:58 20,4 C 21,2 C 61 % 1008,3 hPa 0,0 l/m 2 min 0 min 2,6 UV-I 545 W/m 28,3 km/h (4 Bft)
31.05.2013 13:00 20,5 C 21,8 C 62 % 1008,2 hPa 0,0 l/m 2 min 0 min 2,6 UV-I 496 W/m 30,9 km/h (5 Bft)
31.05.2013 13:02 20,6 C 21,2 C 61 % 1008,2 hPa 0,0 l/m 2 min 0 min 2,5 UV-I 482 W/m 25,7 km/h (4 Bft)
31.05.2013 13:04 20,7 C 21,8 C 60 % 1008,3 hPa 0,0 l/m 2 min 0 min 2,7 UV-I 554 W/m 43,8 km/h (6 Bft)
31.05.2013 13:06 20,7 C 22,3 C 60 % 1008,1 hPa 0,0 l/m 2 min 0 min 2,7 UV-I 617 W/m 30,9 km/h (5 Bft)
31.05.2013 13:08 20,8 C 22,3 C 61 % 1008,2 hPa 0,0 l/m 2 min 0 min 2,7 UV-I 591 W/m 36,0 km/h (5 Bft)
31.05.2013 13:10 20,9 C 22,9 C 63 % 1008,1 hPa 0,0 l/m 2 min 0 min 2,7 UV-I 633 W/m 23,2 km/h (4 Bft)
31.05.2013 13:12 21,0 C 22,9 C 60 % 1008,2 hPa 0,0 l/m 2 min 0 min 2,8 UV-I 759 W/m 30,9 km/h (5 Bft)
31.05.2013 13:14 21,1 C 23,4 C 61 % 1008,2 hPa 0,0 l/m 2 min 0 min 2,7 UV-I 751 W/m 25,7 km/h (4 Bft)
31.05.2013 13:16 21,2 C 23,4 C 61 % 1008,1 hPa 0,0 l/m 2 min 0 min 2,5 UV-I 751 W/m 23,2 km/h (4 Bft)
31.05.2013 13:18 21,2 C 22,3 C 61 % 1008,2 hPa 0,0 l/m 2 min 0 min 2,5 UV-I 526 W/m 28,3 km/h (4 Bft)
31.05.2013 13:20 21,1 C 22,3 C 61 % 1008,3 hPa 0,0 l/m 2 min 0 min 2,6 UV-I 554 W/m 38,6 km/h (5 Bft)
31.05.2013 13:22 21,1 C 22,3 C 61 % 1008,2 hPa 0,0 l/m 2 min 0 min 2,8 UV-I 543 W/m 36,0 km/h (5 Bft)
31.05.2013 13:24 21,2 C 22,9 C 62 % 1008,2 hPa 0,0 l/m 2 min 0 min 2,9 UV-I 636 W/m 28,3 km/h (4 Bft)
31.05.2013 13:26 21,3 C 22,9 C 60 % 1008,3 hPa 0,0 l/m 2 min 0 min 2,9 UV-I 664 W/m 38,6 km/h (5 Bft)
31.05.2013 13:28 21,3 C 22,3 C 61 % 1008,1 hPa 0,0 l/m 0 min 0 min 2,6 UV-I 436 W/m 25,7 km/h (4 Bft)
31.05.2013 13:30 21,3 C 22,3 C 61 % 1008,3 hPa 0,0 l/m 2 min 0 min 3,0 UV-I 476 W/m 23,2 km/h (4 Bft)
31.05.2013 13:32 21,4 C 24,0 C 62 % 1008,1 hPa 0,0 l/m 2 min 0 min 2,9 UV-I 795 W/m 38,6 km/h (5 Bft)
31.05.2013 13:34 21,6 C 23,4 C 62 % 1008,0 hPa 0,0 l/m 2 min 0 min 2,5 UV-I 795 W/m 28,3 km/h (4 Bft)
31.05.2013 13:36 21,6 C 22,3 C 60 % 1008,2 hPa 0,0 l/m 0 min 0 min 2,3 UV-I 431 W/m 38,6 km/h (5 Bft)
31.05.2013 13:38 21,5 C 21,8 C 60 % 1008,2 hPa 0,0 l/m 0 min 0 min 2,3 UV-I 429 W/m 20,6 km/h (4 Bft)
31.05.2013 13:40 21,4 C 21,8 C 61 % 1008,1 hPa 0,0 l/m 0 min 0 min 2,3 UV-I 446 W/m 30,9 km/h (5 Bft)
31.05.2013 13:42 21,4 C 21,8 C 61 % 1008,2 hPa 0,0 l/m 0 min 0 min 2,3 UV-I 429 W/m 20,6 km/h (4 Bft)
31.05.2013 13:44 21,4 C 21,8 C 59 % 1008,2 hPa 0,0 l/m 0 min 0 min 2,3 UV-I 432 W/m 30,9 km/h (5 Bft)
31.05.2013 13:46 21,3 C 21,2 C 60 % 1008,2 hPa 0,0 l/m 0 min 0 min 2,2 UV-I 410 W/m 33,5 km/h (5 Bft)
31.05.2013 13:48 21,2 C 21,2 C 60 % 1008,3 hPa 0,0 l/m 0 min 0 min 2,2 UV-I 385 W/m 41,2 km/h (6 Bft)
31.05.2013 13:50 21,2 C 21,2 C 60 % 1008,2 hPa 0,0 l/m 0 min 0 min 2,2 UV-I 408 W/m 28,3 km/h (4 Bft)
31.05.2013 13:52 21,1 C 21,2 C 60 % 1008,3 hPa 0,0 l/m 2 min 0 min 2,8 UV-I 506 W/m 36,0 km/h (5 Bft)
31.05.2013 13:54 21,1 C 21,2 C 60 % 1008,3 hPa 0,0 l/m 2 min 0 min 2,9 UV-I 557 W/m 30,9 km/h (5 Bft)
31.05.2013 13:56 21,1 C 21,2 C 60 % 1008,3 hPa 0,0 l/m 0 min 0 min 2,6 UV-I 469 W/m 41,2 km/h (6 Bft)
31.05.2013 13:58 21,1 C 21,2 C 60 % 1008,3 hPa 0,0 l/m 0 min 0 min 2,6 UV-I 450 W/m 38,6 km/h (5 Bft)
31.05.2013 14:00 21,2 C 21,2 C 61 % 1008,3 hPa 0,0 l/m 2 min 0 min 2,9 UV-I 545 W/m 20,6 km/h (4 Bft)
31.05.2013 14:02 21,3 C 21,8 C 62 % 1008,2 hPa 0,0 l/m 0 min 0 min 2,2 UV-I 420 W/m 20,6 km/h (4 Bft)
31.05.2013 14:04 21,3 C 21,2 C 62 % 1008,1 hPa 0,0 l/m 0 min 0 min 2,6 UV-I 330 W/m 20,6 km/h (4 Bft)
31.05.2013 14:06 21,3 C 21,2 C 62 % 1008,2 hPa 0,0 l/m 0 min 0 min 2,7 UV-I 445 W/m 36,0 km/h (5 Bft)
31.05.2013 14:08 21,3 C 21,2 C 62 % 1008,1 hPa 0,0 l/m 2 min 0 min 3,0 UV-I 499 W/m 30,9 km/h (5 Bft)
31.05.2013 14:10 21,4 C 21,8 C 63 % 1008,1 hPa 0,0 l/m 2 min 0 min 3,8 UV-I 796 W/m 30,9 km/h (5 Bft)
31.05.2013 14:12 21,6 C 22,3 C 61 % 1008,2 hPa 0,0 l/m 2 min 0 min 3,8 UV-I 721 W/m 23,2 km/h (4 Bft)
31.05.2013 14:14 21,7 C 22,3 C 59 % 1008,1 hPa 0,0 l/m 2 min 0 min 3,7 UV-I 721 W/m 36,0 km/h (5 Bft)
31.05.2013 14:16 21,7 C 21,8 C 59 % 1008,1 hPa 0,0 l/m 2 min 0 min 3,2 UV-I 721 W/m 43,8 km/h (6 Bft)
31.05.2013 14:18 21,7 C 21,8 C 59 % 1008,2 hPa 0,0 l/m 2 min 0 min 3,3 UV-I 635 W/m 43,8 km/h (6 Bft)
31.05.2013 14:20 21,8 C 21,8 C 58 % 1008,0 hPa 0,0 l/m 2 min 0 min 3,0 UV-I 540 W/m 33,5 km/h (5 Bft)
31.05.2013 14:22 21,7 C 21,8 C 59 % 1008,2 hPa 0,0 l/m 2 min 0 min 3,1 UV-I 524 W/m 28,3 km/h (4 Bft)
31.05.2013 14:24 21,7 C 21,8 C 58 % 1008,1 hPa 0,0 l/m 2 min 0 min 2,9 UV-I 504 W/m 30,9 km/h (5 Bft)
31.05.2013 14:26 21,7 C 21,8 C 59 % 1008,1 hPa 0,0 l/m 2 min 0 min 2,7 UV-I 483 W/m 28,3 km/h (4 Bft)
31.05.2013 14:28 21,6 C 21,8 C 59 % 1008,1 hPa 0,0 l/m 2 min 0 min 2,8 UV-I 497 W/m 36,0 km/h (5 Bft)
31.05.2013 14:30 21,6 C 21,8 C 59 % 1008,2 hPa 0,0 l/m 0 min 0 min 2,5 UV-I 418 W/m 28,3 km/h (4 Bft)
31.05.2013 14:32 21,6 C 21,8 C 60 % 1008,2 hPa 0,0 l/m 0 min 0 min 2,4 UV-I 396 W/m 20,6 km/h (4 Bft)
31.05.2013 14:34 21,7 C 21,8 C 60 % 1008,0 hPa 0,0 l/m 2 min 0 min 3,0 UV-I 575 W/m 15,4 km/h (3 Bft)
31.05.2013 14:36 21,7 C 21,8 C 59 % 1008,2 hPa 0,0 l/m 2 min 0 min 3,7 UV-I 682 W/m 36,0 km/h (5 Bft)
31.05.2013 14:38 21,8 C 21,8 C 57 % 1008,2 hPa 0,0 l/m 2 min 0 min 3,9 UV-I 731 W/m 33,5 km/h (5 Bft)
31.05.2013 14:40 21,9 C 22,3 C 58 % 1008,2 hPa 0,0 l/m 2 min 0 min 4,0 UV-I 728 W/m 36,0 km/h (5 Bft)
31.05.2013 14:42 22,0 C 22,9 C 58 % 1008,1 hPa 0,0 l/m 2 min 0 min 3,3 UV-I 726 W/m 30,9 km/h (5 Bft)
31.05.2013 14:44 22,2 C 22,9 C 59 % 1008,2 hPa 0,0 l/m 2 min 0 min 3,6 UV-I 652 W/m 20,6 km/h (4 Bft)
31.05.2013 14:46 22,2 C 22,9 C 57 % 1008,1 hPa 0,0 l/m 2 min 0 min 3,8 UV-I 613 W/m 46,3 km/h (6 Bft)
31.05.2013 14:48 22,2 C 22,9 C 57 % 1008,1 hPa 0,0 l/m 2 min 0 min 3,5 UV-I 612 W/m 38,6 km/h (5 Bft)
31.05.2013 14:50 22,2 C 22,3 C 56 % 1008,2 hPa 0,0 l/m 2 min 0 min 3,8 UV-I 664 W/m 41,2 km/h (6 Bft)
31.05.2013 14:52 22,1 C 22,3 C 56 % 1008,1 hPa 0,0 l/m 2 min 0 min 3,8 UV-I 715 W/m 41,2 km/h (6 Bft)
31.05.2013 14:54 22,2 C 22,3 C 57 % 1008,2 hPa 0,0 l/m 2 min 0 min 4,2 UV-I 724 W/m 20,6 km/h (4 Bft)
31.05.2013 14:56 22,3 C 22,9 C 58 % 1008,2 hPa 0,0 l/m 2 min 0 min 2,7 UV-I 814 W/m 28,3 km/h (4 Bft)
31.05.2013 14:58 22,4 C 22,9 C 56 % 1008,1 hPa 0,0 l/m 2 min 0 min 2,8 UV-I 745 W/m 33,5 km/h (5 Bft)
31.05.2013 15:00 22,4 C 22,9 C 58 % 1008,2 hPa 0,0 l/m 0 min 0 min 2,1 UV-I 334 W/m 23,2 km/h (4 Bft)
31.05.2013 15:02 22,3 C 22,3 C 58 % 1008,2 hPa 0,0 l/m 0 min 0 min 3,4 UV-I 355 W/m 30,9 km/h (5 Bft)
31.05.2013 15:04 22,3 C 22,3 C 59 % 1008,2 hPa 0,0 l/m 0 min 0 min 2,5 UV-I 341 W/m 30,9 km/h (5 Bft)
31.05.2013 15:06 22,3 C 22,3 C 59 % 1008,2 hPa 0,0 l/m 2 min 0 min 4,2 UV-I 844 W/m 28,3 km/h (4 Bft)
31.05.2013 15:08 22,3 C 22,3 C 57 % 1008,4 hPa 0,0 l/m 2 min 0 min 4,1 UV-I 819 W/m 43,8 km/h (6 Bft)
31.05.2013 15:10 22,2 C 22,3 C 58 % 1008,1 hPa 0,0 l/m 2 min 0 min 3,8 UV-I 752 W/m 28,3 km/h (4 Bft)
31.05.2013 15:12 22,3 C 22,3 C 59 % 1008,1 hPa 0,0 l/m 2 min 0 min 3,6 UV-I 712 W/m 30,9 km/h (5 Bft)
31.05.2013 15:14 22,4 C 22,9 C 58 % 1008,2 hPa 0,0 l/m 2 min 0 min 3,4 UV-I 656 W/m 23,2 km/h (4 Bft)
31.05.2013 15:16 22,4 C 22,3 C 58 % 1008,1 hPa 0,0 l/m 2 min 0 min 3,0 UV-I 592 W/m 28,3 km/h (4 Bft)
31.05.2013 15:18 22,4 C 22,3 C 57 % 1008,2 hPa 0,0 l/m 2 min 0 min 3,0 UV-I 547 W/m 30,9 km/h (5 Bft)
31.05.2013 15:20 22,4 C 22,3 C 56 % 1008,2 hPa 0,0 l/m 2 min 0 min 3,0 UV-I 526 W/m 36,0 km/h (5 Bft)
31.05.2013 15:22 22,3 C 21,8 C 56 % 1008,2 hPa 0,0 l/m 2 min 0 min 3,6 UV-I 650 W/m 38,6 km/h (5 Bft)
31.05.2013 15:24 22,2 C 22,3 C 58 % 1008,2 hPa 0,0 l/m 2 min 0 min 4,0 UV-I 782 W/m 28,3 km/h (4 Bft)
31.05.2013 15:26 22,2 C 22,3 C 57 % 1008,2 hPa 0,0 l/m 2 min 0 min 4,0 UV-I 809 W/m 30,9 km/h (5 Bft)
31.05.2013 15:28 22,3 C 22,9 C 58 % 1008,2 hPa 0,0 l/m 2 min 0 min 3,1 UV-I 870 W/m 28,3 km/h (4 Bft)
31.05.2013 15:30 22,5 C 22,9 C 58 % 1008,2 hPa 0,0 l/m 2 min 0 min 4,1 UV-I 870 W/m 30,9 km/h (5 Bft)
31.05.2013 15:32 22,7 C 22,9 C 58 % 1008,2 hPa 0,0 l/m 2 min 0 min 2,3 UV-I 856 W/m 23,2 km/h (4 Bft)
31.05.2013 15:34 22,6 C 22,9 C 56 % 1008,3 hPa 0,0 l/m 2 min 0 min 4,2 UV-I 867 W/m 33,5 km/h (5 Bft)
31.05.2013 15:36 22,6 C 22,9 C 56 % 1008,2 hPa 0,0 l/m 2 min 0 min 2,9 UV-I 817 W/m 33,5 km/h (5 Bft)
31.05.2013 15:38 22,4 C 22,9 C 57 % 1008,2 hPa 0,0 l/m 2 min 0 min 3,9 UV-I 893 W/m 36,0 km/h (5 Bft)
31.05.2013 15:40 22,4 C 22,9 C 57 % 1008,3 hPa 0,0 l/m 2 min 0 min 3,7 UV-I 817 W/m 36,0 km/h (5 Bft)
31.05.2013 15:42 22,3 C 22,9 C 59 % 1008,2 hPa 0,0 l/m 2 min 0 min 2,3 UV-I 796 W/m 30,9 km/h (5 Bft)
31.05.2013 15:44 22,4 C 22,9 C 59 % 1008,2 hPa 0,0 l/m 2 min 0 min 3,7 UV-I 856 W/m 41,2 km/h (6 Bft)
31.05.2013 15:46 22,4 C 22,9 C 57 % 1008,2 hPa 0,0 l/m 2 min 0 min 3,5 UV-I 831 W/m 38,6 km/h (5 Bft)
31.05.2013 15:48 22,4 C 22,3 C 56 % 1008,3 hPa 0,0 l/m 0 min 0 min 1,9 UV-I 348 W/m 36,0 km/h (5 Bft)
31.05.2013 15:50 22,3 C 22,3 C 56 % 1008,3 hPa 0,0 l/m 0 min 0 min 1,8 UV-I 345 W/m 23,2 km/h (4 Bft)
31.05.2013 15:52 22,1 C 21,8 C 55 % 1008,3 hPa 0,0 l/m 0 min 0 min 1,8 UV-I 309 W/m 30,9 km/h (5 Bft)
31.05.2013 15:54 21,9 C 21,8 C 57 % 1008,3 hPa 0,0 l/m 0 min 0 min 2,3 UV-I 334 W/m 28,3 km/h (4 Bft)
31.05.2013 15:56 21,8 C 21,8 C 58 % 1008,2 hPa 0,0 l/m 0 min 0 min 2,2 UV-I 397 W/m 38,6 km/h (5 Bft)
31.05.2013 15:58 21,7 C 21,8 C 57 % 1008,3 hPa 0,0 l/m 0 min 0 min 2,2 UV-I 304 W/m 41,2 km/h (6 Bft)
31.05.2013 16:00 21,7 C 21,8 C 58 % 1008,4 hPa 0,0 l/m 2 min 0 min 1,7 UV-I 452 W/m 33,5 km/h (5 Bft)
31.05.2013 16:02 21,6 C 21,8 C 59 % 1008,4 hPa 0,0 l/m 0 min 0 min 2,1 UV-I 362 W/m 28,3 km/h (4 Bft)
31.05.2013 16:04 21,6 C 21,8 C 58 % 1008,3 hPa 0,0 l/m 0 min 0 min 1,7 UV-I 318 W/m 36,0 km/h (5 Bft)
31.05.2013 16:06 21,5 C 21,2 C 59 % 1008,3 hPa 0,0 l/m 0 min 0 min 1,5 UV-I 278 W/m 25,7 km/h (4 Bft)
31.05.2013 16:08 21,4 C 21,2 C 59 % 1008,3 hPa 0,0 l/m 0 min 0 min 1,8 UV-I 323 W/m 30,9 km/h (5 Bft)
31.05.2013 16:10 21,4 C 21,2 C 59 % 1008,2 hPa 0,0 l/m 0 min 0 min 1,4 UV-I 274 W/m 23,2 km/h (4 Bft)
31.05.2013 16:12 21,4 C 21,2 C 59 % 1008,2 hPa 0,0 l/m 0 min 0 min 1,5 UV-I 272 W/m 28,3 km/h (4 Bft)
31.05.2013 16:14 21,4 C 21,2 C 59 % 1008,3 hPa 0,0 l/m 0 min 0 min 1,2 UV-I 353 W/m 33,5 km/h (5 Bft)
31.05.2013 16:16 21,4 C 21,2 C 58 % 1008,3 hPa 0,0 l/m 0 min 0 min 1,1 UV-I 186 W/m 36,0 km/h (5 Bft)
31.05.2013 16:18 21,4 C 21,2 C 59 % 1008,2 hPa 0,0 l/m 0 min 0 min 1,6 UV-I 355 W/m 33,5 km/h (5 Bft)
31.05.2013 16:20 21,3 C 21,2 C 59 % 1008,3 hPa 0,0 l/m 2 min 0 min 1,8 UV-I 394 W/m 36,0 km/h (5 Bft)
31.05.2013 16:22 21,3 C 21,2 C 60 % 1008,2 hPa 0,0 l/m 0 min 0 min 1,9 UV-I 383 W/m 30,9 km/h (5 Bft)
31.05.2013 16:24 21,3 C 21,2 C 58 % 1008,3 hPa 0,0 l/m 0 min 0 min 2,3 UV-I 366 W/m 41,2 km/h (6 Bft)
31.05.2013 16:26 21,4 C 21,2 C 58 % 1008,2 hPa 0,0 l/m 2 min 0 min 2,3 UV-I 534 W/m 28,3 km/h (4 Bft)
31.05.2013 16:28 21,5 C 21,2 C 56 % 1008,3 hPa 0,0 l/m 2 min 0 min 2,4 UV-I 577 W/m 38,6 km/h (5 Bft)
31.05.2013 16:30 21,6 C 21,2 C 56 % 1008,4 hPa 0,0 l/m 2 min 0 min 1,4 UV-I 561 W/m 30,9 km/h (5 Bft)
31.05.2013 16:32 21,5 C 21,2 C 58 % 1008,3 hPa 0,0 l/m 0 min 0 min 1,8 UV-I 374 W/m 30,9 km/h (5 Bft)
31.05.2013 16:34 21,4 C 21,2 C 58 % 1008,3 hPa 0,0 l/m 0 min 0 min 1,9 UV-I 339 W/m 28,3 km/h (4 Bft)
31.05.2013 16:36 21,4 C 21,2 C 59 % 1008,3 hPa 0,0 l/m 0 min 0 min 2,0 UV-I 339 W/m 25,7 km/h (4 Bft)
31.05.2013 16:38 21,5 C 21,2 C 60 % 1008,3 hPa 0,0 l/m 2 min 0 min 1,2 UV-I 411 W/m 28,3 km/h (4 Bft)
31.05.2013 16:40 21,5 C 21,2 C 59 % 1008,4 hPa 0,0 l/m 0 min 0 min 1,0 UV-I 236 W/m 43,8 km/h (6 Bft)
31.05.2013 16:42 21,4 C 21,2 C 59 % 1008,3 hPa 0,0 l/m 0 min 0 min 2,0 UV-I 236 W/m 36,0 km/h (5 Bft)
31.05.2013 16:44 21,4 C 21,8 C 60 % 1008,3 hPa 0,0 l/m 2 min 0 min 2,0 UV-I 659 W/m 28,3 km/h (4 Bft)
31.05.2013 16:46 21,6 C 21,8 C 60 % 1008,2 hPa 0,0 l/m 2 min 0 min 1,9 UV-I 541 W/m 23,2 km/h (4 Bft)
31.05.2013 16:48 21,7 C 21,8 C 60 % 1008,2 hPa 0,0 l/m 2 min 0 min 2,2 UV-I 580 W/m 25,7 km/h (4 Bft)
31.05.2013 16:50 21,8 C 21,8 C 59 % 1008,3 hPa 0,0 l/m 2 min 0 min 2,3 UV-I 610 W/m 36,0 km/h (5 Bft)
31.05.2013 16:52 21,8 C 21,8 C 58 % 1008,4 hPa 0,0 l/m 2 min 0 min 2,1 UV-I 540 W/m 30,9 km/h (5 Bft)
31.05.2013 16:54 21,8 C 21,2 C 57 % 1008,3 hPa 0,0 l/m 2 min 0 min 2,2 UV-I 582 W/m 36,0 km/h (5 Bft)
31.05.2013 16:56 21,7 C 21,2 C 56 % 1008,4 hPa 0,0 l/m 2 min 0 min 2,2 UV-I 633 W/m 46,3 km/h (6 Bft)
31.05.2013 16:58 21,8 C 21,8 C 56 % 1008,4 hPa 0,0 l/m 2 min 0 min 2,2 UV-I 617 W/m 30,9 km/h (5 Bft)
31.05.2013 17:00 21,7 C 21,2 C 57 % 1008,4 hPa 0,0 l/m 2 min 0 min 1,9 UV-I 598 W/m 38,6 km/h (5 Bft)
31.05.2013 17:02 21,7 C 21,2 C 57 % 1008,3 hPa 0,0 l/m 2 min 0 min 2,1 UV-I 619 W/m 36,0 km/h (5 Bft)
31.05.2013 17:04 21,7 C 21,2 C 57 % 1008,3 hPa 0,0 l/m 2 min 0 min 2,1 UV-I 621 W/m 36,0 km/h (5 Bft)
31.05.2013 17:06 21,6 C 21,2 C 57 % 1008,4 hPa 0,0 l/m 2 min 0 min 2,0 UV-I 591 W/m 36,0 km/h (5 Bft)
31.05.2013 17:08 21,6 C 21,2 C 57 % 1008,2 hPa 0,0 l/m 2 min 0 min 1,9 UV-I 577 W/m 30,9 km/h (5 Bft)
31.05.2013 17:10 21,6 C 21,2 C 59 % 1008,3 hPa 0,0 l/m 2 min 0 min 1,9 UV-I 578 W/m 25,7 km/h (4 Bft)
31.05.2013 17:12 21,6 C 20,7 C 58 % 1008,4 hPa 0,0 l/m 0 min 0 min 1,7 UV-I 179 W/m 38,6 km/h (5 Bft)
31.05.2013 17:14 21,4 C 20,7 C 57 % 1008,5 hPa 0,0 l/m 2 min 0 min 1,9 UV-I 585 W/m 28,3 km/h (4 Bft)
31.05.2013 17:16 21,4 C 20,7 C 57 % 1008,4 hPa 0,0 l/m 2 min 0 min 1,9 UV-I 582 W/m 28,3 km/h (4 Bft)
31.05.2013 17:18 21,3 C 20,7 C 58 % 1008,5 hPa 0,0 l/m 2 min 0 min 1,8 UV-I 570 W/m 38,6 km/h (5 Bft)
31.05.2013 17:20 21,3 C 20,7 C 59 % 1008,4 hPa 0,0 l/m 2 min 0 min 1,7 UV-I 575 W/m 36,0 km/h (5 Bft)
31.05.2013 17:22 21,3 C 20,7 C 60 % 1008,4 hPa 0,0 l/m 2 min 0 min 1,5 UV-I 575 W/m 28,3 km/h (4 Bft)
31.05.2013 17:24 21,4 C 21,2 C 60 % 1008,4 hPa 0,0 l/m 2 min 0 min 1,8 UV-I 587 W/m 25,7 km/h (4 Bft)
31.05.2013 17:26 21,4 C 21,2 C 60 % 1008,5 hPa 0,0 l/m 2 min 0 min 1,7 UV-I 601 W/m 28,3 km/h (4 Bft)
31.05.2013 17:28 21,6 C 21,2 C 59 % 1008,4 hPa 0,0 l/m 2 min 0 min 1,0 UV-I 589 W/m 30,9 km/h (5 Bft)
31.05.2013 17:30 21,6 C 21,2 C 58 % 1008,4 hPa 0,0 l/m 2 min 0 min 0,9 UV-I 577 W/m 36,0 km/h (5 Bft)
31.05.2013 17:32 21,4 C 20,7 C 58 % 1008,4 hPa 0,0 l/m 2 min 0 min 0,9 UV-I 577 W/m 30,9 km/h (5 Bft)
31.05.2013 17:34 21,3 C 20,1 C 59 % 1008,4 hPa 0,0 l/m 2 min 0 min 1,5 UV-I 577 W/m 33,5 km/h (5 Bft)
31.05.2013 17:36 21,2 C 20,1 C 59 % 1008,5 hPa 0,0 l/m 2 min 0 min 1,5 UV-I 531 W/m 25,7 km/h (4 Bft)
31.05.2013 17:38 21,2 C 20,1 C 58 % 1008,4 hPa 0,0 l/m 2 min 0 min 1,4 UV-I 510 W/m 30,9 km/h (5 Bft)
31.05.2013 17:40 21,2 C 20,1 C 58 % 1008,4 hPa 0,0 l/m 2 min 0 min 1,4 UV-I 510 W/m 33,5 km/h (5 Bft)
31.05.2013 17:42 21,2 C 20,1 C 59 % 1008,5 hPa 0,0 l/m 2 min 0 min 1,3 UV-I 434 W/m 20,6 km/h (4 Bft)
31.05.2013 17:44 21,2 C 20,1 C 59 % 1008,3 hPa 0,0 l/m 2 min 0 min 1,4 UV-I 510 W/m 28,3 km/h (4 Bft)
31.05.2013 17:46 21,3 C 20,1 C 59 % 1008,3 hPa 0,0 l/m 2 min 0 min 1,3 UV-I 508 W/m 36,0 km/h (5 Bft)
31.05.2013 17:48 21,2 C 20,1 C 59 % 1008,5 hPa 0,0 l/m 2 min 0 min 1,2 UV-I 471 W/m 30,9 km/h (5 Bft)
31.05.2013 17:50 21,2 C 20,1 C 59 % 1008,4 hPa 0,0 l/m 2 min 0 min 1,2 UV-I 469 W/m 28,3 km/h (4 Bft)
31.05.2013 17:52 21,1 C 20,1 C 59 % 1008,4 hPa 0,0 l/m 2 min 0 min 1,2 UV-I 464 W/m 30,9 km/h (5 Bft)
31.05.2013 17:54 21,1 C 20,1 C 59 % 1008,6 hPa 0,0 l/m 2 min 0 min 0,8 UV-I 475 W/m 38,6 km/h (5 Bft)
31.05.2013 17:56 21,0 C 19,6 C 58 % 1008,6 hPa 0,0 l/m 2 min 0 min 1,1 UV-I 478 W/m 33,5 km/h (5 Bft)
31.05.2013 17:58 20,9 C 20,1 C 58 % 1008,5 hPa 0,0 l/m 2 min 0 min 1,1 UV-I 399 W/m 38,6 km/h (5 Bft)
31.05.2013 18:00 20,9 C 20,1 C 58 % 1008,6 hPa 0,0 l/m 2 min 0 min 1,1 UV-I 466 W/m 33,5 km/h (5 Bft)
31.05.2013 18:02 20,9 C 20,1 C 59 % 1008,5 hPa 0,0 l/m 2 min 0 min 0,9 UV-I 471 W/m 33,5 km/h (5 Bft)
31.05.2013 18:04 20,9 C 20,1 C 59 % 1008,4 hPa 0,0 l/m 2 min 0 min 1,0 UV-I 341 W/m 33,5 km/h (5 Bft)
31.05.2013 18:06 20,9 C 20,1 C 59 % 1008,5 hPa 0,0 l/m 2 min 0 min 0,9 UV-I 438 W/m 23,2 km/h (4 Bft)
31.05.2013 18:08 21,0 C 19,6 C 59 % 1008,5 hPa 0,0 l/m 2 min 0 min 0,8 UV-I 408 W/m 28,3 km/h (4 Bft)
31.05.2013 18:10 20,9 C 19,6 C 58 % 1008,6 hPa 0,0 l/m 0 min 0 min 0,6 UV-I 258 W/m 43,8 km/h (6 Bft)
31.05.2013 18:12 20,9 C 19,6 C 59 % 1008,6 hPa 0,0 l/m 0 min 0 min 0,8 UV-I 155 W/m 28,3 km/h (4 Bft)
31.05.2013 18:14 20,9 C 19,6 C 58 % 1008,5 hPa 0,0 l/m 0 min 0 min 0,7 UV-I 206 W/m 33,5 km/h (5 Bft)
31.05.2013 18:16 20,8 C 19,6 C 58 % 1008,7 hPa 0,0 l/m 2 min 0 min 0,0 UV-I 396 W/m 38,6 km/h (5 Bft)
31.05.2013 18:18 20,7 C 19,6 C 59 % 1008,6 hPa 0,0 l/m 2 min 0 min 0,8 UV-I 397 W/m 41,2 km/h (6 Bft)
31.05.2013 18:20 20,7 C 19,6 C 59 % 1008,6 hPa 0,0 l/m 2 min 0 min 0,7 UV-I 390 W/m 33,5 km/h (5 Bft)
31.05.2013 18:22 20,7 C 19,6 C 59 % 1008,7 hPa 0,0 l/m 2 min 0 min 0,7 UV-I 401 W/m 33,5 km/h (5 Bft)
31.05.2013 18:24 20,7 C 19,6 C 58 % 1008,7 hPa 0,0 l/m 2 min 0 min 0,5 UV-I 383 W/m 25,7 km/h (4 Bft)
31.05.2013 18:26 20,6 C 19,6 C 59 % 1008,6 hPa 0,0 l/m 2 min 0 min 0,0 UV-I 376 W/m 33,5 km/h (5 Bft)
31.05.2013 18:28 20,6 C 19,6 C 60 % 1008,8 hPa 0,0 l/m 0 min 0 min 0,0 UV-I 120 W/m 33,5 km/h (5 Bft)
31.05.2013 18:30 20,6 C 19,6 C 60 % 1008,7 hPa 0,0 l/m 0 min 0 min 0,0 UV-I 123 W/m 36,0 km/h (5 Bft)
31.05.2013 18:32 20,6 C 19,6 C 61 % 1008,7 hPa 0,0 l/m 0 min 0 min 0,0 UV-I 199 W/m 30,9 km/h (5 Bft)
31.05.2013 18:34 20,6 C 19,6 C 61 % 1008,7 hPa 0,0 l/m 0 min 0 min 0,0 UV-I 214 W/m 43,8 km/h (6 Bft)
31.05.2013 18:36 20,6 C 19,0 C 61 % 1008,7 hPa 0,0 l/m 0 min 0 min 0,0 UV-I 197 W/m 23,2 km/h (4 Bft)
31.05.2013 18:38 20,6 C 19,0 C 60 % 1008,7 hPa 0,0 l/m 0 min 0 min 0,0 UV-I 107 W/m 25,7 km/h (4 Bft)
31.05.2013 18:40 20,5 C 19,0 C 60 % 1008,7 hPa 0,0 l/m 0 min 0 min 0,0 UV-I 141 W/m 43,8 km/h (6 Bft)
31.05.2013 18:42 20,4 C 19,0 C 60 % 1008,8 hPa 0,0 l/m 0 min 0 min 0,0 UV-I 88 W/m 30,9 km/h (5 Bft)
31.05.2013 18:44 20,4 C 19,0 C 60 % 1008,7 hPa 0,0 l/m 0 min 0 min 0,0 UV-I 77 W/m 25,7 km/h (4 Bft)
31.05.2013 18:46 20,4 C 19,0 C 60 % 1008,8 hPa 0,0 l/m 0 min 0 min 0,0 UV-I 77 W/m 23,2 km/h (4 Bft)
31.05.2013 18:48 20,4 C 19,0 C 59 % 1008,7 hPa 0,0 l/m 0 min 0 min 0,0 UV-I 77 W/m 36,0 km/h (5 Bft)
31.05.2013 18:50 20,3 C 19,0 C 59 % 1008,8 hPa 0,0 l/m 0 min 0 min 0,0 UV-I 81 W/m 28,3 km/h (4 Bft)
31.05.2013 18:52 20,3 C 19,0 C 60 % 1008,9 hPa 0,0 l/m 0 min 0 min 0,0 UV-I 74 W/m 25,7 km/h (4 Bft)
31.05.2013 18:54 20,3 C 19,0 C 60 % 1008,8 hPa 0,0 l/m 0 min 0 min 0,0 UV-I 77 W/m 23,2 km/h (4 Bft)
31.05.2013 18:56 20,2 C 19,0 C 60 % 1008,9 hPa 0,0 l/m 0 min 0 min 0,0 UV-I 77 W/m 20,6 km/h (4 Bft)
31.05.2013 18:58 20,2 C 18,4 C 60 % 1009,0 hPa 0,0 l/m 0 min 0 min 0,0 UV-I 84 W/m 36,0 km/h (5 Bft)
31.05.2013 19:00 20,1 C 18,4 C 59 % 1008,9 hPa 0,0 l/m 0 min 0 min 0,0 UV-I 84 W/m 33,5 km/h (5 Bft)
31.05.2013 19:02 20,0 C 18,4 C 60 % 1009,0 hPa 0,0 l/m 0 min 0 min 0,0 UV-I 83 W/m 38,6 km/h (5 Bft)
31.05.2013 19:04 20,0 C 18,4 C 59 % 1009,0 hPa 0,0 l/m 0 min 0 min 0,0 UV-I 77 W/m 43,8 km/h (6 Bft)
31.05.2013 19:06 19,9 C 18,4 C 60 % 1009,1 hPa 0,0 l/m 0 min 0 min 0,0 UV-I 65 W/m 30,9 km/h (5 Bft)
31.05.2013 19:08 19,9 C 18,4 C 60 % 1009,0 hPa 0,0 l/m 0 min 0 min 0,0 UV-I 58 W/m 23,2 km/h (4 Bft)
31.05.2013 19:10 19,8 C 18,4 C 61 % 1009,2 hPa 0,0 l/m 0 min 0 min 0,0 UV-I 62 W/m 36,0 km/h (5 Bft)
31.05.2013 19:12 19,8 C 18,4 C 61 % 1009,1 hPa 0,0 l/m 0 min 0 min 0,0 UV-I 58 W/m 28,3 km/h (4 Bft)
31.05.2013 19:14 19,8 C 18,4 C 62 % 1009,1 hPa 0,0 l/m 0 min 0 min 0,0 UV-I 60 W/m 23,2 km/h (4 Bft)
31.05.2013 19:16 19,8 C 18,4 C 62 % 1009,2 hPa 0,0 l/m 0 min 0 min 0,0 UV-I 72 W/m 15,4 km/h (3 Bft)
31.05.2013 19:18 19,8 C 18,4 C 62 % 1009,2 hPa 0,0 l/m 0 min 0 min 0,0 UV-I 65 W/m 23,2 km/h (4 Bft)
31.05.2013 19:20 19,8 C 18,4 C 62 % 1009,2 hPa 0,0 l/m 0 min 0 min 0,0 UV-I 69 W/m 20,6 km/h (4 Bft)
31.05.2013 19:22 19,8 C 18,4 C 62 % 1009,2 hPa 0,0 l/m 0 min 0 min 0,0 UV-I 62 W/m 41,2 km/h (6 Bft)
31.05.2013 19:24 19,8 C 18,4 C 62 % 1009,3 hPa 0,0 l/m 0 min 0 min 0,0 UV-I 62 W/m 36,0 km/h (5 Bft)
31.05.2013 19:26 19,7 C 18,4 C 62 % 1009,2 hPa 0,0 l/m 0 min 0 min 0,0 UV-I 62 W/m 30,9 km/h (5 Bft)
31.05.2013 19:28 19,7 C 18,4 C 62 % 1009,2 hPa 0,0 l/m 0 min 0 min 0,0 UV-I 58 W/m 36,0 km/h (5 Bft)
31.05.2013 19:30 19,7 C 18,4 C 63 % 1009,4 hPa 0,0 l/m 0 min 0 min 0,0 UV-I 58 W/m 28,3 km/h (4 Bft)
31.05.2013 19:32 19,6 C 17,9 C 63 % 1009,3 hPa 0,0 l/m 0 min 0 min 0,0 UV-I 56 W/m 43,8 km/h (6 Bft)
31.05.2013 19:34 19,6 C 17,9 C 63 % 1009,4 hPa 0,0 l/m 0 min 0 min 0,0 UV-I 56 W/m 28,3 km/h (4 Bft)
31.05.2013 19:36 19,5 C 17,9 C 63 % 1009,4 hPa 0,0 l/m 0 min 0 min 0,0 UV-I 56 W/m 30,9 km/h (5 Bft)
31.05.2013 19:38 19,4 C 17,9 C 63 % 1009,4 hPa 0,0 l/m 0 min 0 min 0,0 UV-I 56 W/m 36,0 km/h (5 Bft)
31.05.2013 19:40 19,4 C 17,9 C 63 % 1009,4 hPa 0,0 l/m 0 min 0 min 0,0 UV-I 62 W/m 30,9 km/h (5 Bft)
31.05.2013 19:42 19,3 C 17,9 C 64 % 1009,5 hPa 0,0 l/m 0 min 0 min 0,0 UV-I 69 W/m 20,6 km/h (4 Bft)
31.05.2013 19:44 19,3 C 17,9 C 64 % 1009,5 hPa 0,0 l/m 0 min 0 min 0,0 UV-I 76 W/m 20,6 km/h (4 Bft)
31.05.2013 19:46 19,3 C 17,9 C 65 % 1009,6 hPa 0,0 l/m 0 min 0 min 0,0 UV-I 81 W/m 15,4 km/h (3 Bft)
31.05.2013 19:48 19,3 C 18,4 C 65 % 1009,7 hPa 0,0 l/m 0 min 0 min 0,0 UV-I 90 W/m 20,6 km/h (4 Bft)
31.05.2013 19:50 19,3 C 18,4 C 66 % 1009,7 hPa 0,0 l/m 0 min 0 min 0,0 UV-I 70 W/m 28,3 km/h (4 Bft)
31.05.2013 19:52 19,2 C 17,9 C 66 % 1009,8 hPa 0,0 l/m 0 min 0 min 0,0 UV-I 65 W/m 18,0 km/h (3 Bft)
31.05.2013 19:54 19,2 C 17,9 C 66 % 1009,8 hPa 0,0 l/m 0 min 0 min 0,0 UV-I 62 W/m 38,6 km/h (5 Bft)
31.05.2013 19:56 19,1 C 17,9 C 66 % 1009,8 hPa 0,0 l/m 0 min 0 min 0,0 UV-I 63 W/m 36,0 km/h (5 Bft)
31.05.2013 19:58 19,0 C 17,3 C 66 % 1009,7 hPa 0,0 l/m 0 min 0 min 0,0 UV-I 58 W/m 36,0 km/h (5 Bft)
31.05.2013 20:00 18,9 C 17,3 C 67 % 1009,8 hPa 0,0 l/m 0 min 0 min 0,0 UV-I 53 W/m 36,0 km/h (5 Bft)
31.05.2013 20:02 18,8 C 17,3 C 67 % 1009,8 hPa 0,0 l/m 0 min 0 min 0,0 UV-I 60 W/m 33,5 km/h (5 Bft)
31.05.2013 20:04 18,8 C 17,3 C 67 % 1009,9 hPa 0,0 l/m 0 min 0 min 0,0 UV-I 62 W/m 23,2 km/h (4 Bft)
31.05.2013 20:06 18,7 C 17,3 C 68 % 1009,9 hPa 0,0 l/m 0 min 0 min 0,0 UV-I 63 W/m 25,7 km/h (4 Bft)
31.05.2013 20:08 18,6 C 17,3 C 68 % 1009,9 hPa 0,0 l/m 0 min 0 min 0,0 UV-I 58 W/m 36,0 km/h (5 Bft)
31.05.2013 20:10 18,5 C 17,3 C 68 % 1010,0 hPa 0,0 l/m 0 min 0 min 0,0 UV-I 56 W/m 30,9 km/h (5 Bft)
31.05.2013 20:12 18,4 C 17,3 C 69 % 1010,0 hPa 0,0 l/m 0 min 0 min 0,0 UV-I 60 W/m 33,5 km/h (5 Bft)
31.05.2013 20:14 18,4 C 17,3 C 69 % 1010,0 hPa 0,0 l/m 0 min 0 min 0,0 UV-I 56 W/m 33,5 km/h (5 Bft)
31.05.2013 20:16 18,4 C 17,3 C 69 % 1010,0 hPa 0,0 l/m 0 min 0 min 0,0 UV-I 60 W/m 28,3 km/h (4 Bft)
31.05.2013 20:18 18,3 C 16,8 C 70 % 1010,1 hPa 0,0 l/m 0 min 0 min 0,0 UV-I 49 W/m 25,7 km/h (4 Bft)
31.05.2013 20:20 18,3 C 16,8 C 70 % 1010,1 hPa 0,0 l/m 0 min 0 min 0,0 UV-I 47 W/m 18,0 km/h (3 Bft)
31.05.2013 20:22 18,3 C 16,8 C 70 % 1010,1 hPa 0,0 l/m 0 min 0 min 0,0 UV-I 49 W/m 18,0 km/h (3 Bft)
31.05.2013 20:24 18,3 C 16,8 C 70 % 1010,2 hPa 0,0 l/m 0 min 0 min 0,0 UV-I 42 W/m 25,7 km/h (4 Bft)
31.05.2013 20:26 18,2 C 16,8 C 70 % 1010,1 hPa 0,0 l/m 0 min 0 min 0,0 UV-I 42 W/m 28,3 km/h (4 Bft)
31.05.2013 20:28 18,2 C 16,8 C 70 % 1010,1 hPa 0,0 l/m 0 min 0 min 0,0 UV-I 39 W/m 25,7 km/h (4 Bft)
31.05.2013 20:30 18,2 C 16,8 C 70 % 1010,2 hPa 0,0 l/m 0 min 0 min 0,0 UV-I 33 W/m 30,9 km/h (5 Bft)
31.05.2013 20:32 18,1 C 16,8 C 70 % 1010,2 hPa 0,0 l/m 0 min 0 min 0,0 UV-I 28 W/m 23,2 km/h (4 Bft)
31.05.2013 20:34 18,1 C 16,8 C 70 % 1010,1 hPa 0,0 l/m 0 min 0 min 0,0 UV-I 25 W/m 36,0 km/h (5 Bft)
31.05.2013 20:36 18,1 C 16,8 C 71 % 1010,1 hPa 0,0 l/m 0 min 0 min 0,0 UV-I 23 W/m 20,6 km/h (4 Bft)
31.05.2013 20:38 18,0 C 16,8 C 71 % 1010,3 hPa 0,0 l/m 0 min 0 min 0,0 UV-I 19 W/m 28,3 km/h (4 Bft)
31.05.2013 20:40 18,0 C 16,8 C 71 % 1010,2 hPa 0,0 l/m 0 min 0 min 0,0 UV-I 18 W/m 18,0 km/h (3 Bft)
31.05.2013 20:42 18,0 C 16,8 C 72 % 1010,3 hPa 0,0 l/m 0 min 0 min 0,0 UV-I 14 W/m 20,6 km/h (4 Bft)
31.05.2013 20:44 17,9 C 16,8 C 72 % 1010,3 hPa 0,0 l/m 0 min 0 min 0,0 UV-I 12 W/m 25,7 km/h (4 Bft)
31.05.2013 20:46 17,9 C 16,8 C 72 % 1010,4 hPa 0,0 l/m 0 min 0 min 0,0 UV-I 12 W/m 23,2 km/h (4 Bft)
31.05.2013 20:48 17,9 C 16,8 C 72 % 1010,3 hPa 0,0 l/m 0 min 0 min 0,0 UV-I 11 W/m 18,0 km/h (3 Bft)
31.05.2013 20:50 17,9 C 16,8 C 72 % 1010,3 hPa 0,0 l/m 0 min 0 min 0,0 UV-I 11 W/m 20,6 km/h (4 Bft)
31.05.2013 20:52 17,8 C 16,2 C 72 % 1010,5 hPa 0,0 l/m 0 min 0 min 0,0 UV-I 11 W/m 30,9 km/h (5 Bft)
31.05.2013 20:54 17,8 C 16,2 C 72 % 1010,5 hPa 0,0 l/m 0 min 0 min 0,0 UV-I 9 W/m 18,0 km/h (3 Bft)
31.05.2013 20:56 17,8 C 16,2 C 72 % 1010,5 hPa 0,0 l/m 0 min 0 min 0,0 UV-I 9 W/m 30,9 km/h (5 Bft)
31.05.2013 20:58 17,8 C 16,2 C 72 % 1010,5 hPa 0,0 l/m 0 min 0 min 0,0 UV-I 9 W/m 28,3 km/h (4 Bft)
31.05.2013 21:00 17,7 C 16,2 C 72 % 1010,6 hPa 0,0 l/m 0 min 0 min 0,0 UV-I 7 W/m 30,9 km/h (5 Bft)
31.05.2013 21:02 17,7 C 16,2 C 72 % 1010,6 hPa 0,0 l/m 0 min 0 min 0,0 UV-I 7 W/m 28,3 km/h (4 Bft)
31.05.2013 21:04 17,7 C 16,2 C 73 % 1010,7 hPa 0,0 l/m 0 min 0 min 0,0 UV-I 5 W/m 23,2 km/h (4 Bft)
31.05.2013 21:06 17,7 C 16,2 C 73 % 1010,7 hPa 0,0 l/m 0 min 0 min 0,0 UV-I 5 W/m 20,6 km/h (4 Bft)
31.05.2013 21:08 17,6 C 16,2 C 73 % 1010,7 hPa 0,0 l/m 0 min 0 min 0,0 UV-I 5 W/m 25,7 km/h (4 Bft)
31.05.2013 21:10 17,6 C 16,2 C 73 % 1010,8 hPa 0,0 l/m 0 min 0 min 0,0 UV-I 5 W/m 25,7 km/h (4 Bft)
31.05.2013 21:12 17,6 C 16,2 C 73 % 1010,9 hPa 0,0 l/m 0 min 0 min 0,0 UV-I 5 W/m 23,2 km/h (4 Bft)
31.05.2013 21:14 17,6 C 16,2 C 74 % 1010,8 hPa 0,0 l/m 0 min 0 min 0,0 UV-I 5 W/m 18,0 km/h (3 Bft)
31.05.2013 21:16 17,5 C 16,2 C 74 % 1010,9 hPa 0,0 l/m 0 min 0 min 0,0 UV-I 5 W/m 18,0 km/h (3 Bft)
31.05.2013 21:18 17,5 C 16,2 C 74 % 1010,9 hPa 0,0 l/m 0 min 0 min 0,0 UV-I 5 W/m 18,0 km/h (3 Bft)
31.05.2013 21:20 17,4 C 15,7 C 74 % 1010,9 hPa 0,0 l/m 0 min 0 min 0,0 UV-I 5 W/m 18,0 km/h (3 Bft)
31.05.2013 21:22 17,4 C 15,7 C 74 % 1011,0 hPa 0,0 l/m 0 min 0 min 0,0 UV-I 5 W/m 23,2 km/h (4 Bft)
31.05.2013 21:24 17,3 C 15,7 C 74 % 1011,0 hPa 0,0 l/m 0 min 0 min 0,0 UV-I 5 W/m 20,6 km/h (4 Bft)
31.05.2013 21:26 17,3 C 15,7 C 74 % 1011,0 hPa 0,0 l/m 0 min 0 min 0,0 UV-I 7 W/m 28,3 km/h (4 Bft)
31.05.2013 21:28 17,3 C 15,7 C 75 % 1011,0 hPa 0,0 l/m 0 min 0 min 0,0 UV-I 7 W/m 28,3 km/h (4 Bft)
31.05.2013 21:30 17,2 C 15,7 C 75 % 1011,1 hPa 0,0 l/m 0 min 0 min 0,0 UV-I 5 W/m 25,7 km/h (4 Bft)
31.05.2013 21:32 17,2 C 15,7 C 75 % 1011,0 hPa 0,0 l/m 0 min 0 min 0,0 UV-I 5 W/m 18,0 km/h (3 Bft)
31.05.2013 21:34 17,2 C 15,7 C 75 % 1011,1 hPa 0,0 l/m 0 min 0 min 0,0 UV-I 0 W/m 20,6 km/h (4 Bft)
31.05.2013 21:36 17,1 C 15,7 C 75 % 1011,0 hPa 0,0 l/m 0 min 0 min 0,0 UV-I 0 W/m 20,6 km/h (4 Bft)
31.05.2013 21:38 17,1 C 15,7 C 75 % 1011,1 hPa 0,0 l/m 0 min 0 min 0,0 UV-I 0 W/m 18,0 km/h (3 Bft)
31.05.2013 21:40 17,1 C 15,7 C 75 % 1011,1 hPa 0,0 l/m 0 min 0 min 0,0 UV-I 0 W/m 18,0 km/h (3 Bft)
31.05.2013 21:42 17,0 C 15,7 C 75 % 1011,1 hPa 0,0 l/m 0 min 0 min 0,0 UV-I 0 W/m 33,5 km/h (5 Bft)
31.05.2013 21:44 16,9 C 15,7 C 75 % 1011,2 hPa 0,0 l/m 0 min 0 min 0,0 UV-I 0 W/m 23,2 km/h (4 Bft)
31.05.2013 21:46 16,9 C 15,7 C 75 % 1011,2 hPa 0,0 l/m 0 min 0 min 0,0 UV-I 0 W/m 20,6 km/h (4 Bft)
31.05.2013 21:48 16,9 C 15,7 C 75 % 1011,2 hPa 0,0 l/m 0 min 0 min 0,0 UV-I 0 W/m 23,2 km/h (4 Bft)
31.05.2013 21:50 16,9 C 15,7 C 75 % 1011,1 hPa 0,0 l/m 0 min 0 min 0,0 UV-I 0 W/m 10,3 km/h (2 Bft)
31.05.2013 21:52 16,9 C 15,7 C 76 % 1011,3 hPa 0,0 l/m 0 min 0 min 0,0 UV-I 0 W/m 12,9 km/h (3 Bft)
31.05.2013 21:54 16,8 C 15,7 C 76 % 1011,2 hPa 0,0 l/m 0 min 0 min 0,0 UV-I 0 W/m 7,7 km/h (2 Bft)
31.05.2013 21:56 16,8 C 15,1 C 76 % 1011,2 hPa 0,0 l/m 0 min 0 min 0,0 UV-I 0 W/m 2,6 km/h (1 Bft)
31.05.2013 21:58 16,8 C 15,1 C 76 % 1011,3 hPa 0,0 l/m 0 min 0 min 0,0 UV-I 0 W/m 23,2 km/h (4 Bft)
31.05.2013 22:00 16,8 C 15,1 C 76 % 1011,3 hPa 0,0 l/m 0 min 0 min 0,0 UV-I 0 W/m 20,6 km/h (4 Bft)
31.05.2013 22:02 16,8 C 15,1 C 76 % 1011,3 hPa 0,0 l/m 0 min 0 min 0,0 UV-I 0 W/m 18,0 km/h (3 Bft)
31.05.2013 22:04 16,7 C 15,1 C 76 % 1011,4 hPa 0,0 l/m 0 min 0 min 0,0 UV-I 0 W/m 20,6 km/h (4 Bft)
31.05.2013 22:06 16,7 C 15,1 C 76 % 1011,4 hPa 0,0 l/m 0 min 0 min 0,0 UV-I 0 W/m 12,9 km/h (3 Bft)
31.05.2013 22:08 16,7 C 15,1 C 76 % 1011,5 hPa 0,0 l/m 0 min 0 min 0,0 UV-I 0 W/m 25,7 km/h (4 Bft)
31.05.2013 22:10 16,6 C 15,1 C 76 % 1011,5 hPa 0,0 l/m 0 min 0 min 0,0 UV-I 0 W/m 23,2 km/h (4 Bft)
31.05.2013 22:12 16,6 C 15,1 C 76 % 1011,6 hPa 0,0 l/m 0 min 0 min 0,0 UV-I 0 W/m 15,4 km/h (3 Bft)
31.05.2013 22:14 16,5 C 14,6 C 76 % 1011,5 hPa 0,0 l/m 0 min 0 min 0,0 UV-I 0 W/m 23,2 km/h (4 Bft)
31.05.2013 22:16 16,4 C 14,6 C 76 % 1011,5 hPa 0,0 l/m 0 min 0 min 0,0 UV-I 0 W/m 5,1 km/h (1 Bft)
31.05.2013 22:18 16,4 C 14,6 C 76 % 1011,6 hPa 0,0 l/m 0 min 0 min 0,0 UV-I 0 W/m 23,2 km/h (4 Bft)
31.05.2013 22:20 16,3 C 14,6 C 76 % 1011,6 hPa 0,0 l/m 0 min 0 min 0,0 UV-I 0 W/m 12,9 km/h (3 Bft)
31.05.2013 22:22 16,3 C 14,6 C 76 % 1011,7 hPa 0,0 l/m 0 min 0 min 0,0 UV-I 0 W/m 25,7 km/h (4 Bft)
31.05.2013 22:24 16,2 C 14,6 C 76 % 1011,8 hPa 0,0 l/m 0 min 0 min 0,0 UV-I 0 W/m 18,0 km/h (3 Bft)
31.05.2013 22:26 16,2 C 14,6 C 76 % 1011,8 hPa 0,0 l/m 0 min 0 min 0,0 UV-I 0 W/m 15,4 km/h (3 Bft)
31.05.2013 22:28 16,1 C 14,6 C 77 % 1011,8 hPa 0,0 l/m 0 min 0 min 0,0 UV-I 0 W/m 23,2 km/h (4 Bft)
31.05.2013 22:30 16,0 C 14,6 C 77 % 1011,8 hPa 0,0 l/m 0 min 0 min 0,0 UV-I 0 W/m 18,0 km/h (3 Bft)
31.05.2013 22:32 15,9 C 14,6 C 77 % 1011,8 hPa 0,0 l/m 0 min 0 min 0,0 UV-I 0 W/m 20,6 km/h (4 Bft)
31.05.2013 22:34 15,9 C 14,0 C 77 % 1011,8 hPa 0,0 l/m 0 min 0 min 0,0 UV-I 0 W/m 12,9 km/h (3 Bft)
31.05.2013 22:36 15,8 C 14,0 C 77 % 1011,8 hPa 0,0 l/m 0 min 0 min 0,0 UV-I 0 W/m 28,3 km/h (4 Bft)
31.05.2013 22:38 15,8 C 14,0 C 77 % 1011,7 hPa 0,0 l/m 0 min 0 min 0,0 UV-I 0 W/m 20,6 km/h (4 Bft)
31.05.2013 22:40 15,7 C 14,0 C 77 % 1011,9 hPa 0,0 l/m 0 min 0 min 0,0 UV-I 0 W/m 25,7 km/h (4 Bft)
31.05.2013 22:42 15,6 C 14,0 C 77 % 1011,8 hPa 0,0 l/m 0 min 0 min 0,0 UV-I 0 W/m 18,0 km/h (3 Bft)
31.05.2013 22:44 15,6 C 14,0 C 78 % 1011,8 hPa 0,0 l/m 0 min 0 min 0,0 UV-I 0 W/m 20,6 km/h (4 Bft)
31.05.2013 22:46 15,5 C 14,0 C 78 % 1011,8 hPa 0,0 l/m 0 min 0 min 0,0 UV-I 0 W/m 20,6 km/h (4 Bft)
31.05.2013 22:48 15,4 C 14,0 C 78 % 1011,8 hPa 0,0 l/m 0 min 0 min 0,0 UV-I 0 W/m 28,3 km/h (4 Bft)
31.05.2013 22:50 15,4 C 14,0 C 78 % 1011,8 hPa 0,0 l/m 0 min 0 min 0,0 UV-I 0 W/m 25,7 km/h (4 Bft)
31.05.2013 22:52 15,3 C 14,0 C 79 % 1011,9 hPa 0,0 l/m 0 min 0 min 0,0 UV-I 0 W/m 7,7 km/h (2 Bft)
31.05.2013 22:54 15,3 C 14,0 C 79 % 1011,9 hPa 0,0 l/m 0 min 0 min 0,0 UV-I 0 W/m 15,4 km/h (3 Bft)
31.05.2013 22:56 15,3 C 14,0 C 79 % 1011,9 hPa 0,0 l/m 0 min 0 min 0,0 UV-I 0 W/m 18,0 km/h (3 Bft)
31.05.2013 22:58 15,2 C 13,4 C 79 % 1012,0 hPa 0,0 l/m 0 min 0 min 0,0 UV-I 0 W/m 20,6 km/h (4 Bft)
31.05.2013 23:00 15,2 C 13,4 C 79 % 1012,0 hPa 0,0 l/m 0 min 0 min 0,0 UV-I 0 W/m 25,7 km/h (4 Bft)
31.05.2013 23:02 15,1 C 13,4 C 80 % 1011,9 hPa 0,0 l/m 0 min 0 min 0,0 UV-I 0 W/m 10,3 km/h (2 Bft)
31.05.2013 23:04 15,1 C 13,4 C 80 % 1012,0 hPa 0,0 l/m 0 min 0 min 0,0 UV-I 0 W/m 15,4 km/h (3 Bft)
31.05.2013 23:06 15,1 C 13,4 C 80 % 1011,9 hPa 0,0 l/m 0 min 0 min 0,0 UV-I 0 W/m 25,7 km/h (4 Bft)
31.05.2013 23:08 15,0 C 13,4 C 80 % 1011,9 hPa 0,0 l/m 0 min 0 min 0,0 UV-I 0 W/m 23,2 km/h (4 Bft)
31.05.2013 23:10 14,9 C 13,4 C 80 % 1011,9 hPa 0,0 l/m 0 min 0 min 0,0 UV-I 0 W/m 23,2 km/h (4 Bft)
31.05.2013 23:12 14,9 C 12,9 C 80 % 1011,9 hPa 0,0 l/m 0 min 0 min 0,0 UV-I 0 W/m 20,6 km/h (4 Bft)
31.05.2013 23:14 14,8 C 12,9 C 81 % 1011,9 hPa 0,0 l/m 0 min 0 min 0,0 UV-I 0 W/m 10,3 km/h (2 Bft)
31.05.2013 23:16 14,7 C 12,9 C 81 % 1011,9 hPa 0,0 l/m 0 min 0 min 0,0 UV-I 0 W/m 7,7 km/h (2 Bft)
31.05.2013 23:18 14,7 C 12,9 C 81 % 1011,9 hPa 0,0 l/m 0 min 0 min 0,0 UV-I 0 W/m 7,7 km/h (2 Bft)
31.05.2013 23:20 14,6 C 12,9 C 81 % 1011,8 hPa 0,0 l/m 0 min 0 min 0,0 UV-I 0 W/m 10,3 km/h (2 Bft)
31.05.2013 23:22 14,5 C 12,3 C 81 % 1011,8 hPa 0,0 l/m 0 min 0 min 0,0 UV-I 0 W/m 2,6 km/h (1 Bft)
31.05.2013 23:24 14,4 C 12,3 C 82 % 1011,8 hPa 0,0 l/m 0 min 0 min 0,0 UV-I 0 W/m 18,0 km/h (3 Bft)
31.05.2013 23:26 14,3 C 12,3 C 82 % 1011,9 hPa 0,0 l/m 0 min 0 min 0,0 UV-I 0 W/m 10,3 km/h (2 Bft)
31.05.2013 23:28 14,3 C 12,3 C 82 % 1011,9 hPa 0,0 l/m 0 min 0 min 0,0 UV-I 0 W/m 15,4 km/h (3 Bft)
31.05.2013 23:30 14,2 C 12,3 C 82 % 1011,9 hPa 0,0 l/m 0 min 0 min 0,0 UV-I 0 W/m 10,3 km/h (2 Bft)
31.05.2013 23:32 14,1 C 12,3 C 82 % 1011,9 hPa 0,0 l/m 0 min 0 min 0,0 UV-I 0 W/m 25,7 km/h (4 Bft)
31.05.2013 23:34 14,0 C 11,8 C 83 % 1011,9 hPa 0,0 l/m 0 min 0 min 0,0 UV-I 0 W/m 0,0 km/h (0 Bft)
31.05.2013 23:36 14,0 C 11,8 C 83 % 1011,9 hPa 0,0 l/m 0 min 0 min 0,0 UV-I 0 W/m 7,7 km/h (2 Bft)
31.05.2013 23:38 14,0 C 11,8 C 83 % 1011,9 hPa 0,0 l/m 0 min 0 min 0,0 UV-I 0 W/m 10,3 km/h (2 Bft)
31.05.2013 23:40 13,9 C 11,8 C 83 % 1011,9 hPa 0,0 l/m 0 min 0 min 0,0 UV-I 0 W/m 12,9 km/h (3 Bft)
31.05.2013 23:42 13,8 C 11,8 C 84 % 1011,9 hPa 0,0 l/m 0 min 0 min 0,0 UV-I 0 W/m 10,3 km/h (2 Bft)
31.05.2013 23:44 13,7 C 12,3 C 84 % 1012,0 hPa 0,0 l/m 0 min 0 min 0,0 UV-I 0 W/m 15,4 km/h (3 Bft)
31.05.2013 23:46 13,7 C 12,3 C 84 % 1011,9 hPa 0,0 l/m 0 min 0 min 0,0 UV-I 0 W/m 23,2 km/h (4 Bft)
31.05.2013 23:48 13,6 C 12,3 C 84 % 1011,9 hPa 0,0 l/m 0 min 0 min 0,0 UV-I 0 W/m 15,4 km/h (3 Bft)
31.05.2013 23:50 13,6 C 12,3 C 85 % 1011,9 hPa 0,0 l/m 0 min 0 min 0,0 UV-I 0 W/m 7,7 km/h (2 Bft)
31.05.2013 23:52 13,6 C 12,3 C 85 % 1011,9 hPa 0,0 l/m 0 min 0 min 0,0 UV-I 0 W/m 12,9 km/h (3 Bft)
31.05.2013 23:54 13,5 C 12,3 C 85 % 1011,9 hPa 0,0 l/m 0 min 0 min 0,0 UV-I 0 W/m 5,1 km/h (1 Bft)
31.05.2013 23:56 13,5 C 12,3 C 85 % 1011,8 hPa 0,0 l/m 0 min 0 min 0,0 UV-I 0 W/m 12,9 km/h (3 Bft)
31.05.2013 23:58 13,4 C 12,3 C 85 % 1011,9 hPa 0,0 l/m 0 min 0 min 0,0 UV-I 0 W/m 12,9 km/h (3 Bft)
_ Min-Zeit 00:24 00:00 15:52 04:54 - - - - - 00:00
Minimum _ 11,0 C 9,0 C 55 % 1007,5 hPa - - - - - 0,0 km/h (0 Bft)
_ Max-Zeit 15:32 13:32 04:44 22:58 03:56 11:56 03:46 12:14 15:38 14:46
Maximum _ 22,7 C 24,0 C 97 % 1012,0 hPa 0,2 l/m 2 min 2 min 4,4 UV-I 893 W/m 46,3 km/h
O (6 Bft)
Durchschnitt _ 16,1 C 15,4 C 78 % 1008,8 hPa #0,4 l/m #4:36 h #56 min. 2,1 UV-I 281 W/m 19,2 km/h (3 Bft)
© 2013 W. Hausmann